<?xml version="1.0" encoding="UTF-8" standalone="no" ?>
<gpx xmlns="http://www.topografix.com/GPX/1/1" xmlns:xsi="http://www.w3.org/2001/XMLSchema-instance" xsi:schemaLocation="http://www.topografix.com/GPX/1/1 http://www.topografix.com/GPX/1/1/gpx.xsd" version="1.1" creator="VisuGPX - https://www.visugpx.com">
  <metadata>
    <name>CrossTriathlon M</name>
    <desc><![CDATA[[titre]Triathlon Côte de Granit Rose[/titre]
CrossTriathlon M
]]></desc>
  </metadata>
  <trk>
    <name><![CDATA[CàP]]></name>
    <extensions>
      <line xmlns="http://www.topografix.com/GPX/gpx_style/0/2">
        <color>c72675</color>
        <opacity>1</opacity>
        <width>4</width>
      </line>
    </extensions>
    <trkseg>
      <trkpt lat="48.82887" lon="-3.52169">
        <ele>31</ele>
        <time>2016-05-29T13:58:07.000Z</time>
      </trkpt>
      <trkpt lat="48.82889" lon="-3.52162">
        <ele>31.200000762939</ele>
        <time>2016-05-29T13:58:09.000Z</time>
      </trkpt>
      <trkpt lat="48.82908" lon="-3.52159">
        <ele>31.799999237061</ele>
        <time>2016-05-29T13:58:15.000Z</time>
      </trkpt>
      <trkpt lat="48.82913" lon="-3.52156">
        <ele>32.200000762939</ele>
        <time>2016-05-29T13:58:17.000Z</time>
      </trkpt>
      <trkpt lat="48.82915" lon="-3.52148">
        <ele>32.400001525879</ele>
        <time>2016-05-29T13:58:19.000Z</time>
      </trkpt>
      <trkpt lat="48.82913" lon="-3.52119">
        <ele>32.799999237061</ele>
        <time>2016-05-29T13:58:25.000Z</time>
      </trkpt>
      <trkpt lat="48.82913" lon="-3.52092">
        <ele>33.200000762939</ele>
        <time>2016-05-29T13:58:31.000Z</time>
      </trkpt>
      <trkpt lat="48.82911" lon="-3.52073">
        <ele>33.599998474121</ele>
        <time>2016-05-29T13:58:35.000Z</time>
      </trkpt>
      <trkpt lat="48.82909" lon="-3.52044">
        <ele>33.799999237061</ele>
        <time>2016-05-29T13:58:41.000Z</time>
      </trkpt>
      <trkpt lat="48.82909" lon="-3.52028">
        <ele>34.599998474121</ele>
        <time>2016-05-29T13:58:45.000Z</time>
      </trkpt>
      <trkpt lat="48.82907" lon="-3.51996">
        <ele>35.799999237061</ele>
        <time>2016-05-29T13:58:53.000Z</time>
      </trkpt>
      <trkpt lat="48.82907" lon="-3.51971">
        <ele>37</ele>
        <time>2016-05-29T13:59:00.000Z</time>
      </trkpt>
      <trkpt lat="48.82908" lon="-3.51958">
        <ele>38</ele>
        <time>2016-05-29T13:59:04.000Z</time>
      </trkpt>
      <trkpt lat="48.82905" lon="-3.51931">
        <ele>39.200000762939</ele>
        <time>2016-05-29T13:59:11.000Z</time>
      </trkpt>
      <trkpt lat="48.829" lon="-3.51913">
        <ele>40.400001525879</ele>
        <time>2016-05-29T13:59:15.000Z</time>
      </trkpt>
      <trkpt lat="48.82897" lon="-3.519">
        <ele>41.599998474121</ele>
        <time>2016-05-29T13:59:19.000Z</time>
      </trkpt>
      <trkpt lat="48.82893" lon="-3.51882">
        <ele>42.799999237061</ele>
        <time>2016-05-29T13:59:24.000Z</time>
      </trkpt>
      <trkpt lat="48.82889" lon="-3.5187">
        <ele>44.200000762939</ele>
        <time>2016-05-29T13:59:28.000Z</time>
      </trkpt>
      <trkpt lat="48.82887" lon="-3.51858">
        <ele>45.200000762939</ele>
        <time>2016-05-29T13:59:32.000Z</time>
      </trkpt>
      <trkpt lat="48.82883" lon="-3.51844">
        <ele>46.200000762939</ele>
        <time>2016-05-29T13:59:36.000Z</time>
      </trkpt>
      <trkpt lat="48.82881" lon="-3.51828">
        <ele>47.400001525879</ele>
        <time>2016-05-29T13:59:41.000Z</time>
      </trkpt>
      <trkpt lat="48.82879" lon="-3.51814">
        <ele>48.599998474121</ele>
        <time>2016-05-29T13:59:45.000Z</time>
      </trkpt>
      <trkpt lat="48.82876" lon="-3.51798">
        <ele>49.799999237061</ele>
        <time>2016-05-29T13:59:50.000Z</time>
      </trkpt>
      <trkpt lat="48.82874" lon="-3.5178">
        <ele>51</ele>
        <time>2016-05-29T13:59:55.000Z</time>
      </trkpt>
      <trkpt lat="48.8287" lon="-3.51761">
        <ele>52.400001525879</ele>
        <time>2016-05-29T14:00:00.000Z</time>
      </trkpt>
      <trkpt lat="48.8287" lon="-3.51749">
        <ele>53.200000762939</ele>
        <time>2016-05-29T14:00:03.000Z</time>
      </trkpt>
      <trkpt lat="48.82871" lon="-3.51747">
        <ele>53.799999237061</ele>
        <time>2016-05-29T14:00:04.000Z</time>
      </trkpt>
      <trkpt lat="48.82873" lon="-3.51745">
        <ele>54</ele>
        <time>2016-05-29T14:00:05.000Z</time>
      </trkpt>
      <trkpt lat="48.82883" lon="-3.51748">
        <ele>54.799999237061</ele>
        <time>2016-05-29T14:00:09.000Z</time>
      </trkpt>
      <trkpt lat="48.82901" lon="-3.51763">
        <ele>55.599998474121</ele>
        <time>2016-05-29T14:00:17.000Z</time>
      </trkpt>
      <trkpt lat="48.82918" lon="-3.51773">
        <ele>56</ele>
        <time>2016-05-29T14:00:24.000Z</time>
      </trkpt>
      <trkpt lat="48.82938" lon="-3.5178">
        <ele>56.799999237061</ele>
        <time>2016-05-29T14:00:31.000Z</time>
      </trkpt>
      <trkpt lat="48.82943" lon="-3.51779">
        <ele>57</ele>
        <time>2016-05-29T14:00:33.000Z</time>
      </trkpt>
      <trkpt lat="48.8296" lon="-3.51767">
        <ele>57.799999237061</ele>
        <time>2016-05-29T14:00:41.000Z</time>
      </trkpt>
      <trkpt lat="48.82969" lon="-3.51744">
        <ele>57</ele>
        <time>2016-05-29T14:00:50.000Z</time>
      </trkpt>
      <trkpt lat="48.82977" lon="-3.51722">
        <ele>56</ele>
        <time>2016-05-29T14:00:55.000Z</time>
      </trkpt>
      <trkpt lat="48.82979" lon="-3.51712">
        <ele>55.799999237061</ele>
        <time>2016-05-29T14:00:57.000Z</time>
      </trkpt>
      <trkpt lat="48.82985" lon="-3.51684">
        <ele>56</ele>
        <time>2016-05-29T14:01:04.000Z</time>
      </trkpt>
      <trkpt lat="48.82988" lon="-3.51655">
        <ele>56.799999237061</ele>
        <time>2016-05-29T14:01:11.000Z</time>
      </trkpt>
      <trkpt lat="48.82987" lon="-3.51623">
        <ele>56.799999237061</ele>
        <time>2016-05-29T14:01:18.000Z</time>
      </trkpt>
      <trkpt lat="48.82984" lon="-3.51606">
        <ele>57</ele>
        <time>2016-05-29T14:01:22.000Z</time>
      </trkpt>
      <trkpt lat="48.82969" lon="-3.51589">
        <ele>57.599998474121</ele>
        <time>2016-05-29T14:01:28.000Z</time>
      </trkpt>
      <trkpt lat="48.82951" lon="-3.5158">
        <ele>57.599998474121</ele>
        <time>2016-05-29T14:01:34.000Z</time>
      </trkpt>
      <trkpt lat="48.82933" lon="-3.51571">
        <ele>57.400001525879</ele>
        <time>2016-05-29T14:01:40.000Z</time>
      </trkpt>
      <trkpt lat="48.82914" lon="-3.51562">
        <ele>56</ele>
        <time>2016-05-29T14:01:46.000Z</time>
      </trkpt>
      <trkpt lat="48.82911" lon="-3.5156">
        <ele>55.799999237061</ele>
        <time>2016-05-29T14:01:47.000Z</time>
      </trkpt>
      <trkpt lat="48.82893" lon="-3.51551">
        <ele>54.599998474121</ele>
        <time>2016-05-29T14:01:52.000Z</time>
      </trkpt>
      <trkpt lat="48.82883" lon="-3.51541">
        <ele>53.799999237061</ele>
        <time>2016-05-29T14:01:56.000Z</time>
      </trkpt>
      <trkpt lat="48.82882" lon="-3.51536">
        <ele>53.599998474121</ele>
        <time>2016-05-29T14:01:57.000Z</time>
      </trkpt>
      <trkpt lat="48.82883" lon="-3.51532">
        <ele>53.599998474121</ele>
        <time>2016-05-29T14:01:58.000Z</time>
      </trkpt>
      <trkpt lat="48.82898" lon="-3.51515">
        <ele>53.400001525879</ele>
        <time>2016-05-29T14:02:04.000Z</time>
      </trkpt>
      <trkpt lat="48.82915" lon="-3.515">
        <ele>53</ele>
        <time>2016-05-29T14:02:10.000Z</time>
      </trkpt>
      <trkpt lat="48.82926" lon="-3.51491">
        <ele>52.400001525879</ele>
        <time>2016-05-29T14:02:14.000Z</time>
      </trkpt>
      <trkpt lat="48.82936" lon="-3.51483">
        <ele>51.400001525879</ele>
        <time>2016-05-29T14:02:17.000Z</time>
      </trkpt>
      <trkpt lat="48.82949" lon="-3.51473">
        <ele>50.400001525879</ele>
        <time>2016-05-29T14:02:21.000Z</time>
      </trkpt>
      <trkpt lat="48.82965" lon="-3.51461">
        <ele>49.200000762939</ele>
        <time>2016-05-29T14:02:26.000Z</time>
      </trkpt>
      <trkpt lat="48.82977" lon="-3.5145">
        <ele>47.599998474121</ele>
        <time>2016-05-29T14:02:30.000Z</time>
      </trkpt>
      <trkpt lat="48.82993" lon="-3.51432">
        <ele>46.599998474121</ele>
        <time>2016-05-29T14:02:36.000Z</time>
      </trkpt>
      <trkpt lat="48.82995" lon="-3.51427">
        <ele>46.200000762939</ele>
        <time>2016-05-29T14:02:37.000Z</time>
      </trkpt>
      <trkpt lat="48.83001" lon="-3.51406">
        <ele>45.200000762939</ele>
        <time>2016-05-29T14:02:41.000Z</time>
      </trkpt>
      <trkpt lat="48.83005" lon="-3.51385">
        <ele>44</ele>
        <time>2016-05-29T14:02:45.000Z</time>
      </trkpt>
      <trkpt lat="48.83018" lon="-3.51368">
        <ele>43</ele>
        <time>2016-05-29T14:02:51.000Z</time>
      </trkpt>
      <trkpt lat="48.83038" lon="-3.51372">
        <ele>42.200000762939</ele>
        <time>2016-05-29T14:02:57.000Z</time>
      </trkpt>
      <trkpt lat="48.83041" lon="-3.51373">
        <ele>42</ele>
        <time>2016-05-29T14:02:58.000Z</time>
      </trkpt>
      <trkpt lat="48.83058" lon="-3.51374">
        <ele>41</ele>
        <time>2016-05-29T14:03:03.000Z</time>
      </trkpt>
      <trkpt lat="48.83073" lon="-3.51373">
        <ele>40</ele>
        <time>2016-05-29T14:03:08.000Z</time>
      </trkpt>
      <trkpt lat="48.83081" lon="-3.51362">
        <ele>38.799999237061</ele>
        <time>2016-05-29T14:03:11.000Z</time>
      </trkpt>
      <trkpt lat="48.8309" lon="-3.51346">
        <ele>37.400001525879</ele>
        <time>2016-05-29T14:03:15.000Z</time>
      </trkpt>
      <trkpt lat="48.83091" lon="-3.51342">
        <ele>37.200000762939</ele>
        <time>2016-05-29T14:03:16.000Z</time>
      </trkpt>
      <trkpt lat="48.8309" lon="-3.51331">
        <ele>37.200000762939</ele>
        <time>2016-05-29T14:03:19.000Z</time>
      </trkpt>
      <trkpt lat="48.83073" lon="-3.51316">
        <ele>37</ele>
        <time>2016-05-29T14:03:27.000Z</time>
      </trkpt>
      <trkpt lat="48.83057" lon="-3.51297">
        <ele>36.799999237061</ele>
        <time>2016-05-29T14:03:34.000Z</time>
      </trkpt>
      <trkpt lat="48.83059" lon="-3.51269">
        <ele>36.599998474121</ele>
        <time>2016-05-29T14:03:40.000Z</time>
      </trkpt>
      <trkpt lat="48.83065" lon="-3.51239">
        <ele>36.799999237061</ele>
        <time>2016-05-29T14:03:47.000Z</time>
      </trkpt>
      <trkpt lat="48.83078" lon="-3.51217">
        <ele>36.799999237061</ele>
        <time>2016-05-29T14:03:53.000Z</time>
      </trkpt>
      <trkpt lat="48.83093" lon="-3.51198">
        <ele>37.200000762939</ele>
        <time>2016-05-29T14:03:59.000Z</time>
      </trkpt>
      <trkpt lat="48.83105" lon="-3.51173">
        <ele>37.599998474121</ele>
        <time>2016-05-29T14:04:06.000Z</time>
      </trkpt>
      <trkpt lat="48.83113" lon="-3.51149">
        <ele>37.200000762939</ele>
        <time>2016-05-29T14:04:12.000Z</time>
      </trkpt>
      <trkpt lat="48.83121" lon="-3.51138">
        <ele>36.400001525879</ele>
        <time>2016-05-29T14:04:15.000Z</time>
      </trkpt>
      <trkpt lat="48.83137" lon="-3.5113">
        <ele>35.400001525879</ele>
        <time>2016-05-29T14:04:21.000Z</time>
      </trkpt>
      <trkpt lat="48.83156" lon="-3.51129">
        <ele>34.599998474121</ele>
        <time>2016-05-29T14:04:27.000Z</time>
      </trkpt>
      <trkpt lat="48.83167" lon="-3.51128">
        <ele>34.200000762939</ele>
        <time>2016-05-29T14:04:31.000Z</time>
      </trkpt>
      <trkpt lat="48.83173" lon="-3.51122">
        <ele>33.200000762939</ele>
        <time>2016-05-29T14:04:33.000Z</time>
      </trkpt>
      <trkpt lat="48.83174" lon="-3.51117">
        <ele>33</ele>
        <time>2016-05-29T14:04:34.000Z</time>
      </trkpt>
      <trkpt lat="48.83174" lon="-3.51086">
        <ele>32.400001525879</ele>
        <time>2016-05-29T14:04:40.000Z</time>
      </trkpt>
      <trkpt lat="48.83176" lon="-3.51056">
        <ele>32</ele>
        <time>2016-05-29T14:04:46.000Z</time>
      </trkpt>
      <trkpt lat="48.83179" lon="-3.51028">
        <ele>31.60000038147</ele>
        <time>2016-05-29T14:04:52.000Z</time>
      </trkpt>
      <trkpt lat="48.83184" lon="-3.50997">
        <ele>30.799999237061</ele>
        <time>2016-05-29T14:04:58.000Z</time>
      </trkpt>
      <trkpt lat="48.83187" lon="-3.50982">
        <ele>30.60000038147</ele>
        <time>2016-05-29T14:05:01.000Z</time>
      </trkpt>
      <trkpt lat="48.8319" lon="-3.50975">
        <ele>30.200000762939</ele>
        <time>2016-05-29T14:05:03.000Z</time>
      </trkpt>
      <trkpt lat="48.8321" lon="-3.50973">
        <ele>30.39999961853</ele>
        <time>2016-05-29T14:05:09.000Z</time>
      </trkpt>
      <trkpt lat="48.83228" lon="-3.50979">
        <ele>30.200000762939</ele>
        <time>2016-05-29T14:05:15.000Z</time>
      </trkpt>
      <trkpt lat="48.83245" lon="-3.50988">
        <ele>30</ele>
        <time>2016-05-29T14:05:21.000Z</time>
      </trkpt>
      <trkpt lat="48.83262" lon="-3.50997">
        <ele>30</ele>
        <time>2016-05-29T14:05:27.000Z</time>
      </trkpt>
      <trkpt lat="48.83279" lon="-3.51008">
        <ele>29.799999237061</ele>
        <time>2016-05-29T14:05:33.000Z</time>
      </trkpt>
      <trkpt lat="48.83295" lon="-3.5102">
        <ele>29.200000762939</ele>
        <time>2016-05-29T14:05:39.000Z</time>
      </trkpt>
      <trkpt lat="48.83313" lon="-3.51034">
        <ele>29</ele>
        <time>2016-05-29T14:05:46.000Z</time>
      </trkpt>
      <trkpt lat="48.83332" lon="-3.51047">
        <ele>28.799999237061</ele>
        <time>2016-05-29T14:05:53.000Z</time>
      </trkpt>
      <trkpt lat="48.83349" lon="-3.51059">
        <ele>28.39999961853</ele>
        <time>2016-05-29T14:06:00.000Z</time>
      </trkpt>
      <trkpt lat="48.83352" lon="-3.51061">
        <ele>28.200000762939</ele>
        <time>2016-05-29T14:06:01.000Z</time>
      </trkpt>
      <trkpt lat="48.83371" lon="-3.5107">
        <ele>28.60000038147</ele>
        <time>2016-05-29T14:06:07.000Z</time>
      </trkpt>
      <trkpt lat="48.8339" lon="-3.51076">
        <ele>28.799999237061</ele>
        <time>2016-05-29T14:06:14.000Z</time>
      </trkpt>
      <trkpt lat="48.83405" lon="-3.51077">
        <ele>29.39999961853</ele>
        <time>2016-05-29T14:06:19.000Z</time>
      </trkpt>
      <trkpt lat="48.83423" lon="-3.51082">
        <ele>29.60000038147</ele>
        <time>2016-05-29T14:06:25.000Z</time>
      </trkpt>
      <trkpt lat="48.83428" lon="-3.51081">
        <ele>29.39999961853</ele>
        <time>2016-05-29T14:06:27.000Z</time>
      </trkpt>
      <trkpt lat="48.8344" lon="-3.51058">
        <ele>30.200000762939</ele>
        <time>2016-05-29T14:06:34.000Z</time>
      </trkpt>
      <trkpt lat="48.8345" lon="-3.51033">
        <ele>30</ele>
        <time>2016-05-29T14:06:41.000Z</time>
      </trkpt>
      <trkpt lat="48.83456" lon="-3.51017">
        <ele>30.60000038147</ele>
        <time>2016-05-29T14:06:45.000Z</time>
      </trkpt>
      <trkpt lat="48.83464" lon="-3.50989">
        <ele>30.799999237061</ele>
        <time>2016-05-29T14:06:52.000Z</time>
      </trkpt>
      <trkpt lat="48.83463" lon="-3.50962">
        <ele>31</ele>
        <time>2016-05-29T14:06:59.000Z</time>
      </trkpt>
      <trkpt lat="48.83461" lon="-3.50935">
        <ele>31</ele>
        <time>2016-05-29T14:07:05.000Z</time>
      </trkpt>
      <trkpt lat="48.83462" lon="-3.50904">
        <ele>31.39999961853</ele>
        <time>2016-05-29T14:07:12.000Z</time>
      </trkpt>
      <trkpt lat="48.83464" lon="-3.50882">
        <ele>31.60000038147</ele>
        <time>2016-05-29T14:07:17.000Z</time>
      </trkpt>
      <trkpt lat="48.83467" lon="-3.50855">
        <ele>31.200000762939</ele>
        <time>2016-05-29T14:07:23.000Z</time>
      </trkpt>
      <trkpt lat="48.83471" lon="-3.50825">
        <ele>31.39999961853</ele>
        <time>2016-05-29T14:07:30.000Z</time>
      </trkpt>
      <trkpt lat="48.83464" lon="-3.50795">
        <ele>30.60000038147</ele>
        <time>2016-05-29T14:07:37.000Z</time>
      </trkpt>
      <trkpt lat="48.83464" lon="-3.50785">
        <ele>30.39999961853</ele>
        <time>2016-05-29T14:07:39.000Z</time>
      </trkpt>
      <trkpt lat="48.83476" lon="-3.50767">
        <ele>29.200000762939</ele>
        <time>2016-05-29T14:07:45.000Z</time>
      </trkpt>
      <trkpt lat="48.83488" lon="-3.50747">
        <ele>29.200000762939</ele>
        <time>2016-05-29T14:07:51.000Z</time>
      </trkpt>
      <trkpt lat="48.83485" lon="-3.50721">
        <ele>28.799999237061</ele>
        <time>2016-05-29T14:07:58.000Z</time>
      </trkpt>
      <trkpt lat="48.83473" lon="-3.50695">
        <ele>29.200000762939</ele>
        <time>2016-05-29T14:08:05.000Z</time>
      </trkpt>
      <trkpt lat="48.8346" lon="-3.50674">
        <ele>29</ele>
        <time>2016-05-29T14:08:11.000Z</time>
      </trkpt>
      <trkpt lat="48.83451" lon="-3.50657">
        <ele>29</ele>
        <time>2016-05-29T14:08:16.000Z</time>
      </trkpt>
      <trkpt lat="48.83438" lon="-3.50636">
        <ele>28.799999237061</ele>
        <time>2016-05-29T14:08:22.000Z</time>
      </trkpt>
      <trkpt lat="48.83426" lon="-3.50615">
        <ele>28.799999237061</ele>
        <time>2016-05-29T14:08:28.000Z</time>
      </trkpt>
      <trkpt lat="48.83414" lon="-3.50594">
        <ele>28.799999237061</ele>
        <time>2016-05-29T14:08:34.000Z</time>
      </trkpt>
      <trkpt lat="48.83399" lon="-3.50574">
        <ele>29.200000762939</ele>
        <time>2016-05-29T14:08:41.000Z</time>
      </trkpt>
      <trkpt lat="48.83388" lon="-3.50551">
        <ele>29.60000038147</ele>
        <time>2016-05-29T14:08:48.000Z</time>
      </trkpt>
      <trkpt lat="48.83378" lon="-3.50528">
        <ele>30</ele>
        <time>2016-05-29T14:08:55.000Z</time>
      </trkpt>
      <trkpt lat="48.83376" lon="-3.50522">
        <ele>30.60000038147</ele>
        <time>2016-05-29T14:08:57.000Z</time>
      </trkpt>
      <trkpt lat="48.83364" lon="-3.50501">
        <ele>31.39999961853</ele>
        <time>2016-05-29T14:09:04.000Z</time>
      </trkpt>
      <trkpt lat="48.83364" lon="-3.50497">
        <ele>31.39999961853</ele>
        <time>2016-05-29T14:09:05.000Z</time>
      </trkpt>
      <trkpt lat="48.83366" lon="-3.50494">
        <ele>31.60000038147</ele>
        <time>2016-05-29T14:09:06.000Z</time>
      </trkpt>
      <trkpt lat="48.83368" lon="-3.50492">
        <ele>31.60000038147</ele>
        <time>2016-05-29T14:09:07.000Z</time>
      </trkpt>
      <trkpt lat="48.83382" lon="-3.50473">
        <ele>32.200000762939</ele>
        <time>2016-05-29T14:09:15.000Z</time>
      </trkpt>
      <trkpt lat="48.83398" lon="-3.50457">
        <ele>32.599998474121</ele>
        <time>2016-05-29T14:09:23.000Z</time>
      </trkpt>
      <trkpt lat="48.83418" lon="-3.50448">
        <ele>31.799999237061</ele>
        <time>2016-05-29T14:09:31.000Z</time>
      </trkpt>
      <trkpt lat="48.83423" lon="-3.50446">
        <ele>31.39999961853</ele>
        <time>2016-05-29T14:09:33.000Z</time>
      </trkpt>
      <trkpt lat="48.83442" lon="-3.50439">
        <ele>31.60000038147</ele>
        <time>2016-05-29T14:09:39.000Z</time>
      </trkpt>
      <trkpt lat="48.83455" lon="-3.50433">
        <ele>32</ele>
        <time>2016-05-29T14:09:44.000Z</time>
      </trkpt>
      <trkpt lat="48.8346" lon="-3.50423">
        <ele>32.400001525879</ele>
        <time>2016-05-29T14:09:47.000Z</time>
      </trkpt>
      <trkpt lat="48.83469" lon="-3.504">
        <ele>31.799999237061</ele>
        <time>2016-05-29T14:09:53.000Z</time>
      </trkpt>
      <trkpt lat="48.83483" lon="-3.50384">
        <ele>32.599998474121</ele>
        <time>2016-05-29T14:09:59.000Z</time>
      </trkpt>
      <trkpt lat="48.835" lon="-3.50367">
        <ele>32.400001525879</ele>
        <time>2016-05-29T14:10:06.000Z</time>
      </trkpt>
      <trkpt lat="48.83514" lon="-3.50345">
        <ele>31.39999961853</ele>
        <time>2016-05-29T14:10:13.000Z</time>
      </trkpt>
      <trkpt lat="48.83529" lon="-3.50326">
        <ele>31</ele>
        <time>2016-05-29T14:10:19.000Z</time>
      </trkpt>
      <trkpt lat="48.83544" lon="-3.50309">
        <ele>30.799999237061</ele>
        <time>2016-05-29T14:10:25.000Z</time>
      </trkpt>
      <trkpt lat="48.8355" lon="-3.50303">
        <ele>30.60000038147</ele>
        <time>2016-05-29T14:10:28.000Z</time>
      </trkpt>
      <trkpt lat="48.83565" lon="-3.50322">
        <ele>30.799999237061</ele>
        <time>2016-05-29T14:10:35.000Z</time>
      </trkpt>
      <trkpt lat="48.83577" lon="-3.50347">
        <ele>31.60000038147</ele>
        <time>2016-05-29T14:10:42.000Z</time>
      </trkpt>
      <trkpt lat="48.83593" lon="-3.50357">
        <ele>31.799999237061</ele>
        <time>2016-05-29T14:10:49.000Z</time>
      </trkpt>
      <trkpt lat="48.83614" lon="-3.50358">
        <ele>32</ele>
        <time>2016-05-29T14:10:56.000Z</time>
      </trkpt>
      <trkpt lat="48.83626" lon="-3.50356">
        <ele>32.599998474121</ele>
        <time>2016-05-29T14:11:00.000Z</time>
      </trkpt>
      <trkpt lat="48.83644" lon="-3.50349">
        <ele>33</ele>
        <time>2016-05-29T14:11:07.000Z</time>
      </trkpt>
      <trkpt lat="48.83659" lon="-3.50341">
        <ele>33.799999237061</ele>
        <time>2016-05-29T14:11:13.000Z</time>
      </trkpt>
      <trkpt lat="48.83678" lon="-3.50333">
        <ele>34.599998474121</ele>
        <time>2016-05-29T14:11:20.000Z</time>
      </trkpt>
      <trkpt lat="48.83689" lon="-3.50331">
        <ele>34.799999237061</ele>
        <time>2016-05-29T14:11:24.000Z</time>
      </trkpt>
      <trkpt lat="48.83709" lon="-3.50339">
        <ele>34.799999237061</ele>
        <time>2016-05-29T14:11:31.000Z</time>
      </trkpt>
      <trkpt lat="48.83722" lon="-3.50357">
        <ele>34.400001525879</ele>
        <time>2016-05-29T14:11:37.000Z</time>
      </trkpt>
      <trkpt lat="48.83731" lon="-3.50369">
        <ele>33.799999237061</ele>
        <time>2016-05-29T14:11:41.000Z</time>
      </trkpt>
      <trkpt lat="48.83748" lon="-3.50379">
        <ele>32.799999237061</ele>
        <time>2016-05-29T14:11:47.000Z</time>
      </trkpt>
      <trkpt lat="48.83767" lon="-3.50379">
        <ele>31.60000038147</ele>
        <time>2016-05-29T14:11:53.000Z</time>
      </trkpt>
      <trkpt lat="48.83784" lon="-3.50376">
        <ele>32</ele>
        <time>2016-05-29T14:11:59.000Z</time>
      </trkpt>
      <trkpt lat="48.83805" lon="-3.50377">
        <ele>32.200000762939</ele>
        <time>2016-05-29T14:12:06.000Z</time>
      </trkpt>
      <trkpt lat="48.83825" lon="-3.50383">
        <ele>32.400001525879</ele>
        <time>2016-05-29T14:12:13.000Z</time>
      </trkpt>
      <trkpt lat="48.83831" lon="-3.50389">
        <ele>32.799999237061</ele>
        <time>2016-05-29T14:12:16.000Z</time>
      </trkpt>
      <trkpt lat="48.8383" lon="-3.50399">
        <ele>32.799999237061</ele>
        <time>2016-05-29T14:12:18.000Z</time>
      </trkpt>
      <trkpt lat="48.83815" lon="-3.5042">
        <ele>32.599998474121</ele>
        <time>2016-05-29T14:12:24.000Z</time>
      </trkpt>
      <trkpt lat="48.83797" lon="-3.50433">
        <ele>32.599998474121</ele>
        <time>2016-05-29T14:12:31.000Z</time>
      </trkpt>
      <trkpt lat="48.83781" lon="-3.5045">
        <ele>32.599998474121</ele>
        <time>2016-05-29T14:12:38.000Z</time>
      </trkpt>
      <trkpt lat="48.83776" lon="-3.50455">
        <ele>32.799999237061</ele>
        <time>2016-05-29T14:12:40.000Z</time>
      </trkpt>
      <trkpt lat="48.8376" lon="-3.50472">
        <ele>33</ele>
        <time>2016-05-29T14:12:46.000Z</time>
      </trkpt>
      <trkpt lat="48.83745" lon="-3.50489">
        <ele>33</ele>
        <time>2016-05-29T14:12:52.000Z</time>
      </trkpt>
      <trkpt lat="48.83732" lon="-3.50509">
        <ele>33</ele>
        <time>2016-05-29T14:12:58.000Z</time>
      </trkpt>
      <trkpt lat="48.8372" lon="-3.50531">
        <ele>32.799999237061</ele>
        <time>2016-05-29T14:13:04.000Z</time>
      </trkpt>
      <trkpt lat="48.8371" lon="-3.50555">
        <ele>32.599998474121</ele>
        <time>2016-05-29T14:13:10.000Z</time>
      </trkpt>
      <trkpt lat="48.83699" lon="-3.50577">
        <ele>32.400001525879</ele>
        <time>2016-05-29T14:13:16.000Z</time>
      </trkpt>
      <trkpt lat="48.83688" lon="-3.50603">
        <ele>32</ele>
        <time>2016-05-29T14:13:23.000Z</time>
      </trkpt>
      <trkpt lat="48.83685" lon="-3.5061">
        <ele>31.60000038147</ele>
        <time>2016-05-29T14:13:25.000Z</time>
      </trkpt>
      <trkpt lat="48.83683" lon="-3.50614">
        <ele>31.60000038147</ele>
        <time>2016-05-29T14:13:26.000Z</time>
      </trkpt>
      <trkpt lat="48.83673" lon="-3.50626">
        <ele>31.39999961853</ele>
        <time>2016-05-29T14:13:30.000Z</time>
      </trkpt>
      <trkpt lat="48.83661" lon="-3.50646">
        <ele>30.799999237061</ele>
        <time>2016-05-29T14:13:36.000Z</time>
      </trkpt>
      <trkpt lat="48.83652" lon="-3.50672">
        <ele>31.39999961853</ele>
        <time>2016-05-29T14:13:43.000Z</time>
      </trkpt>
      <trkpt lat="48.83639" lon="-3.50691">
        <ele>31.799999237061</ele>
        <time>2016-05-29T14:13:50.000Z</time>
      </trkpt>
      <trkpt lat="48.83625" lon="-3.5071">
        <ele>32.400001525879</ele>
        <time>2016-05-29T14:13:57.000Z</time>
      </trkpt>
      <trkpt lat="48.83619" lon="-3.50718">
        <ele>32.599998474121</ele>
        <time>2016-05-29T14:14:00.000Z</time>
      </trkpt>
      <trkpt lat="48.83611" lon="-3.50726">
        <ele>32.599998474121</ele>
        <time>2016-05-29T14:14:03.000Z</time>
      </trkpt>
      <trkpt lat="48.83595" lon="-3.50745">
        <ele>32.599998474121</ele>
        <time>2016-05-29T14:14:10.000Z</time>
      </trkpt>
      <trkpt lat="48.83581" lon="-3.50762">
        <ele>33</ele>
        <time>2016-05-29T14:14:16.000Z</time>
      </trkpt>
      <trkpt lat="48.83564" lon="-3.50781">
        <ele>33.599998474121</ele>
        <time>2016-05-29T14:14:23.000Z</time>
      </trkpt>
      <trkpt lat="48.8356" lon="-3.50791">
        <ele>33.799999237061</ele>
        <time>2016-05-29T14:14:26.000Z</time>
      </trkpt>
      <trkpt lat="48.83548" lon="-3.50815">
        <ele>34</ele>
        <time>2016-05-29T14:14:33.000Z</time>
      </trkpt>
      <trkpt lat="48.83538" lon="-3.5084">
        <ele>34.200000762939</ele>
        <time>2016-05-29T14:14:40.000Z</time>
      </trkpt>
      <trkpt lat="48.83527" lon="-3.50864">
        <ele>34.200000762939</ele>
        <time>2016-05-29T14:14:47.000Z</time>
      </trkpt>
      <trkpt lat="48.83515" lon="-3.50876">
        <ele>33.599998474121</ele>
        <time>2016-05-29T14:14:52.000Z</time>
      </trkpt>
      <trkpt lat="48.83515" lon="-3.50884">
        <ele>33.799999237061</ele>
        <time>2016-05-29T14:14:54.000Z</time>
      </trkpt>
      <trkpt lat="48.83514" lon="-3.50911">
        <ele>34.200000762939</ele>
        <time>2016-05-29T14:15:00.000Z</time>
      </trkpt>
      <trkpt lat="48.83504" lon="-3.50938">
        <ele>33.400001525879</ele>
        <time>2016-05-29T14:15:07.000Z</time>
      </trkpt>
      <trkpt lat="48.83502" lon="-3.50944">
        <ele>33.400001525879</ele>
        <time>2016-05-29T14:15:09.000Z</time>
      </trkpt>
      <trkpt lat="48.83496" lon="-3.50971">
        <ele>32.799999237061</ele>
        <time>2016-05-29T14:15:15.000Z</time>
      </trkpt>
      <trkpt lat="48.83495" lon="-3.50975">
        <ele>32.799999237061</ele>
        <time>2016-05-29T14:15:16.000Z</time>
      </trkpt>
      <trkpt lat="48.83488" lon="-3.50989">
        <ele>32.400001525879</ele>
        <time>2016-05-29T14:15:20.000Z</time>
      </trkpt>
      <trkpt lat="48.83487" lon="-3.51007">
        <ele>32.400001525879</ele>
        <time>2016-05-29T14:15:24.000Z</time>
      </trkpt>
      <trkpt lat="48.83486" lon="-3.51035">
        <ele>32.200000762939</ele>
        <time>2016-05-29T14:15:30.000Z</time>
      </trkpt>
      <trkpt lat="48.8348" lon="-3.51061">
        <ele>31.60000038147</ele>
        <time>2016-05-29T14:15:36.000Z</time>
      </trkpt>
      <trkpt lat="48.8347" lon="-3.51083">
        <ele>30.60000038147</ele>
        <time>2016-05-29T14:15:42.000Z</time>
      </trkpt>
      <trkpt lat="48.83463" lon="-3.51096">
        <ele>30</ele>
        <time>2016-05-29T14:15:46.000Z</time>
      </trkpt>
      <trkpt lat="48.83452" lon="-3.51099">
        <ele>29.39999961853</ele>
        <time>2016-05-29T14:15:50.000Z</time>
      </trkpt>
      <trkpt lat="48.83446" lon="-3.51098">
        <ele>29.200000762939</ele>
        <time>2016-05-29T14:15:53.000Z</time>
      </trkpt>
      <trkpt lat="48.83427" lon="-3.51091">
        <ele>28.799999237061</ele>
        <time>2016-05-29T14:16:03.000Z</time>
      </trkpt>
      <trkpt lat="48.83407" lon="-3.5109">
        <ele>29.200000762939</ele>
        <time>2016-05-29T14:16:10.000Z</time>
      </trkpt>
      <trkpt lat="48.83392" lon="-3.51109">
        <ele>29.60000038147</ele>
        <time>2016-05-29T14:16:17.000Z</time>
      </trkpt>
      <trkpt lat="48.83381" lon="-3.51133">
        <ele>30.200000762939</ele>
        <time>2016-05-29T14:16:24.000Z</time>
      </trkpt>
      <trkpt lat="48.83379" lon="-3.51139">
        <ele>30.60000038147</ele>
        <time>2016-05-29T14:16:26.000Z</time>
      </trkpt>
      <trkpt lat="48.8337" lon="-3.51164">
        <ele>31.39999961853</ele>
        <time>2016-05-29T14:16:33.000Z</time>
      </trkpt>
      <trkpt lat="48.83369" lon="-3.51168">
        <ele>31.60000038147</ele>
        <time>2016-05-29T14:16:34.000Z</time>
      </trkpt>
      <trkpt lat="48.83359" lon="-3.51193">
        <ele>32.400001525879</ele>
        <time>2016-05-29T14:16:41.000Z</time>
      </trkpt>
      <trkpt lat="48.83358" lon="-3.51196">
        <ele>32.599998474121</ele>
        <time>2016-05-29T14:16:42.000Z</time>
      </trkpt>
      <trkpt lat="48.83346" lon="-3.51222">
        <ele>33.400001525879</ele>
        <time>2016-05-29T14:16:50.000Z</time>
      </trkpt>
      <trkpt lat="48.8334" lon="-3.51234">
        <ele>34</ele>
        <time>2016-05-29T14:16:54.000Z</time>
      </trkpt>
      <trkpt lat="48.83326" lon="-3.51252">
        <ele>34.799999237061</ele>
        <time>2016-05-29T14:17:01.000Z</time>
      </trkpt>
      <trkpt lat="48.83319" lon="-3.51258">
        <ele>35</ele>
        <time>2016-05-29T14:17:04.000Z</time>
      </trkpt>
      <trkpt lat="48.83301" lon="-3.51267">
        <ele>34.799999237061</ele>
        <time>2016-05-29T14:17:11.000Z</time>
      </trkpt>
      <trkpt lat="48.83282" lon="-3.51274">
        <ele>34.400001525879</ele>
        <time>2016-05-29T14:17:18.000Z</time>
      </trkpt>
      <trkpt lat="48.83271" lon="-3.5129">
        <ele>34</ele>
        <time>2016-05-29T14:17:23.000Z</time>
      </trkpt>
      <trkpt lat="48.83267" lon="-3.51321">
        <ele>33.200000762939</ele>
        <time>2016-05-29T14:17:30.000Z</time>
      </trkpt>
      <trkpt lat="48.83269" lon="-3.51339">
        <ele>33</ele>
        <time>2016-05-29T14:17:34.000Z</time>
      </trkpt>
      <trkpt lat="48.83276" lon="-3.51368">
        <ele>32</ele>
        <time>2016-05-29T14:17:41.000Z</time>
      </trkpt>
      <trkpt lat="48.83278" lon="-3.51375">
        <ele>31.60000038147</ele>
        <time>2016-05-29T14:17:43.000Z</time>
      </trkpt>
      <trkpt lat="48.83285" lon="-3.51401">
        <ele>31.200000762939</ele>
        <time>2016-05-29T14:17:49.000Z</time>
      </trkpt>
      <trkpt lat="48.83292" lon="-3.51427">
        <ele>31.200000762939</ele>
        <time>2016-05-29T14:17:55.000Z</time>
      </trkpt>
      <trkpt lat="48.83287" lon="-3.51461">
        <ele>32.200000762939</ele>
        <time>2016-05-29T14:18:02.000Z</time>
      </trkpt>
      <trkpt lat="48.8328" lon="-3.51477">
        <ele>32.799999237061</ele>
        <time>2016-05-29T14:18:07.000Z</time>
      </trkpt>
      <trkpt lat="48.83261" lon="-3.51472">
        <ele>32.599998474121</ele>
        <time>2016-05-29T14:18:13.000Z</time>
      </trkpt>
      <trkpt lat="48.83245" lon="-3.5147">
        <ele>32</ele>
        <time>2016-05-29T14:18:20.000Z</time>
      </trkpt>
      <trkpt lat="48.83237" lon="-3.51484">
        <ele>33</ele>
        <time>2016-05-29T14:18:25.000Z</time>
      </trkpt>
      <trkpt lat="48.83229" lon="-3.51506">
        <ele>34</ele>
        <time>2016-05-29T14:18:31.000Z</time>
      </trkpt>
      <trkpt lat="48.83224" lon="-3.51529">
        <ele>35</ele>
        <time>2016-05-29T14:18:37.000Z</time>
      </trkpt>
      <trkpt lat="48.83214" lon="-3.51553">
        <ele>35.599998474121</ele>
        <time>2016-05-29T14:18:43.000Z</time>
      </trkpt>
      <trkpt lat="48.83212" lon="-3.51568">
        <ele>35.799999237061</ele>
        <time>2016-05-29T14:18:47.000Z</time>
      </trkpt>
      <trkpt lat="48.8321" lon="-3.51581">
        <ele>36.200000762939</ele>
        <time>2016-05-29T14:18:50.000Z</time>
      </trkpt>
      <trkpt lat="48.83205" lon="-3.51609">
        <ele>36</ele>
        <time>2016-05-29T14:18:57.000Z</time>
      </trkpt>
      <trkpt lat="48.83199" lon="-3.51639">
        <ele>35.200000762939</ele>
        <time>2016-05-29T14:19:04.000Z</time>
      </trkpt>
      <trkpt lat="48.83189" lon="-3.51661">
        <ele>35.200000762939</ele>
        <time>2016-05-29T14:19:10.000Z</time>
      </trkpt>
      <trkpt lat="48.83173" lon="-3.51681">
        <ele>36.200000762939</ele>
        <time>2016-05-29T14:19:18.000Z</time>
      </trkpt>
      <trkpt lat="48.83166" lon="-3.51689">
        <ele>37.200000762939</ele>
        <time>2016-05-29T14:19:22.000Z</time>
      </trkpt>
      <trkpt lat="48.83159" lon="-3.51702">
        <ele>38.200000762939</ele>
        <time>2016-05-29T14:19:28.000Z</time>
      </trkpt>
      <trkpt lat="48.83148" lon="-3.51715">
        <ele>39.400001525879</ele>
        <time>2016-05-29T14:19:34.000Z</time>
      </trkpt>
      <trkpt lat="48.83137" lon="-3.51725">
        <ele>40.400001525879</ele>
        <time>2016-05-29T14:19:40.000Z</time>
      </trkpt>
      <trkpt lat="48.83125" lon="-3.51736">
        <ele>41.599998474121</ele>
        <time>2016-05-29T14:19:46.000Z</time>
      </trkpt>
      <trkpt lat="48.83118" lon="-3.51761">
        <ele>42.200000762939</ele>
        <time>2016-05-29T14:19:55.000Z</time>
      </trkpt>
      <trkpt lat="48.83117" lon="-3.51765">
        <ele>42.799999237061</ele>
        <time>2016-05-29T14:19:57.000Z</time>
      </trkpt>
      <trkpt lat="48.8311" lon="-3.51767">
        <ele>43.799999237061</ele>
        <time>2016-05-29T14:20:01.000Z</time>
      </trkpt>
      <trkpt lat="48.83108" lon="-3.51773">
        <ele>45.200000762939</ele>
        <time>2016-05-29T14:20:05.000Z</time>
      </trkpt>
      <trkpt lat="48.83104" lon="-3.51778">
        <ele>46.400001525879</ele>
        <time>2016-05-29T14:20:08.000Z</time>
      </trkpt>
      <trkpt lat="48.83098" lon="-3.51781">
        <ele>47.400001525879</ele>
        <time>2016-05-29T14:20:12.000Z</time>
      </trkpt>
      <trkpt lat="48.83077" lon="-3.51783">
        <ele>48.400001525879</ele>
        <time>2016-05-29T14:20:21.000Z</time>
      </trkpt>
      <trkpt lat="48.83075" lon="-3.51783">
        <ele>48.599998474121</ele>
        <time>2016-05-29T14:20:22.000Z</time>
      </trkpt>
      <trkpt lat="48.83057" lon="-3.5178">
        <ele>49.400001525879</ele>
        <time>2016-05-29T14:20:29.000Z</time>
      </trkpt>
      <trkpt lat="48.83049" lon="-3.51777">
        <ele>49.599998474121</ele>
        <time>2016-05-29T14:20:32.000Z</time>
      </trkpt>
      <trkpt lat="48.83036" lon="-3.51767">
        <ele>50.599998474121</ele>
        <time>2016-05-29T14:20:39.000Z</time>
      </trkpt>
      <trkpt lat="48.83025" lon="-3.51763">
        <ele>51.799999237061</ele>
        <time>2016-05-29T14:20:45.000Z</time>
      </trkpt>
      <trkpt lat="48.83014" lon="-3.51761">
        <ele>53</ele>
        <time>2016-05-29T14:20:50.000Z</time>
      </trkpt>
      <trkpt lat="48.82996" lon="-3.51754">
        <ele>54</ele>
        <time>2016-05-29T14:20:58.000Z</time>
      </trkpt>
      <trkpt lat="48.82993" lon="-3.51753">
        <ele>54</ele>
        <time>2016-05-29T14:20:59.000Z</time>
      </trkpt>
      <trkpt lat="48.82986" lon="-3.51749">
        <ele>55.200000762939</ele>
        <time>2016-05-29T14:21:03.000Z</time>
      </trkpt>
      <trkpt lat="48.82976" lon="-3.51756">
        <ele>56.400001525879</ele>
        <time>2016-05-29T14:21:08.000Z</time>
      </trkpt>
      <trkpt lat="48.82959" lon="-3.51775">
        <ele>57.400001525879</ele>
        <time>2016-05-29T14:21:16.000Z</time>
      </trkpt>
      <trkpt lat="48.82941" lon="-3.51784">
        <ele>56.799999237061</ele>
        <time>2016-05-29T14:21:22.000Z</time>
      </trkpt>
      <trkpt lat="48.82922" lon="-3.51784">
        <ele>56.400001525879</ele>
        <time>2016-05-29T14:21:29.000Z</time>
      </trkpt>
      <trkpt lat="48.82905" lon="-3.51772">
        <ele>55.799999237061</ele>
        <time>2016-05-29T14:21:35.000Z</time>
      </trkpt>
      <trkpt lat="48.82897" lon="-3.51766">
        <ele>55.200000762939</ele>
        <time>2016-05-29T14:21:38.000Z</time>
      </trkpt>
      <trkpt lat="48.82879" lon="-3.51751">
        <ele>54.400001525879</ele>
        <time>2016-05-29T14:21:45.000Z</time>
      </trkpt>
      <trkpt lat="48.82877" lon="-3.5175">
        <ele>54.200000762939</ele>
        <time>2016-05-29T14:21:46.000Z</time>
      </trkpt>
      <trkpt lat="48.82871" lon="-3.51749">
        <ele>54</ele>
        <time>2016-05-29T14:21:48.000Z</time>
      </trkpt>
      <trkpt lat="48.82868" lon="-3.51756">
        <ele>53.200000762939</ele>
        <time>2016-05-29T14:21:50.000Z</time>
      </trkpt>
      <trkpt lat="48.82869" lon="-3.51762">
        <ele>52.799999237061</ele>
        <time>2016-05-29T14:21:51.000Z</time>
      </trkpt>
      <trkpt lat="48.8287" lon="-3.51779">
        <ele>51.599998474121</ele>
        <time>2016-05-29T14:21:54.000Z</time>
      </trkpt>
      <trkpt lat="48.82873" lon="-3.51796">
        <ele>50.400001525879</ele>
        <time>2016-05-29T14:21:57.000Z</time>
      </trkpt>
      <trkpt lat="48.82875" lon="-3.51812">
        <ele>49.400001525879</ele>
        <time>2016-05-29T14:22:00.000Z</time>
      </trkpt>
      <trkpt lat="48.82878" lon="-3.51831">
        <ele>48</ele>
        <time>2016-05-29T14:22:04.000Z</time>
      </trkpt>
      <trkpt lat="48.8288" lon="-3.51844">
        <ele>46.799999237061</ele>
        <time>2016-05-29T14:22:07.000Z</time>
      </trkpt>
      <trkpt lat="48.82882" lon="-3.51862">
        <ele>45.400001525879</ele>
        <time>2016-05-29T14:22:11.000Z</time>
      </trkpt>
      <trkpt lat="48.82884" lon="-3.51876">
        <ele>44.200000762939</ele>
        <time>2016-05-29T14:22:14.000Z</time>
      </trkpt>
      <trkpt lat="48.82886" lon="-3.5189">
        <ele>42.599998474121</ele>
        <time>2016-05-29T14:22:17.000Z</time>
      </trkpt>
      <trkpt lat="48.82889" lon="-3.51905">
        <ele>41.400001525879</ele>
        <time>2016-05-29T14:22:20.000Z</time>
      </trkpt>
      <trkpt lat="48.82891" lon="-3.51921">
        <ele>40</ele>
        <time>2016-05-29T14:22:23.000Z</time>
      </trkpt>
      <trkpt lat="48.82895" lon="-3.51936">
        <ele>38.599998474121</ele>
        <time>2016-05-29T14:22:26.000Z</time>
      </trkpt>
      <trkpt lat="48.82909" lon="-3.51954">
        <ele>38</ele>
        <time>2016-05-29T14:22:31.000Z</time>
      </trkpt>
      <trkpt lat="48.82927" lon="-3.51959">
        <ele>38.799999237061</ele>
        <time>2016-05-29T14:22:37.000Z</time>
      </trkpt>
      <trkpt lat="48.82946" lon="-3.51959">
        <ele>39</ele>
        <time>2016-05-29T14:22:43.000Z</time>
      </trkpt>
      <trkpt lat="48.82966" lon="-3.51962">
        <ele>39</ele>
        <time>2016-05-29T14:22:49.000Z</time>
      </trkpt>
      <trkpt lat="48.82979" lon="-3.51966">
        <ele>37.200000762939</ele>
        <time>2016-05-29T14:22:53.000Z</time>
      </trkpt>
      <trkpt lat="48.82987" lon="-3.51971">
        <ele>36</ele>
        <time>2016-05-29T14:22:56.000Z</time>
      </trkpt>
      <trkpt lat="48.82993" lon="-3.51972">
        <ele>34.400001525879</ele>
        <time>2016-05-29T14:22:58.000Z</time>
      </trkpt>
      <trkpt lat="48.82998" lon="-3.51972">
        <ele>33.200000762939</ele>
        <time>2016-05-29T14:23:00.000Z</time>
      </trkpt>
      <trkpt lat="48.83001" lon="-3.51974">
        <ele>31.39999961853</ele>
        <time>2016-05-29T14:23:03.000Z</time>
      </trkpt>
      <trkpt lat="48.83003" lon="-3.51976">
        <ele>30.60000038147</ele>
        <time>2016-05-29T14:23:05.000Z</time>
      </trkpt>
      <trkpt lat="48.83005" lon="-3.51979">
        <ele>30.39999961853</ele>
        <time>2016-05-29T14:23:06.000Z</time>
      </trkpt>
      <trkpt lat="48.83002" lon="-3.52006">
        <ele>30</ele>
        <time>2016-05-29T14:23:12.000Z</time>
      </trkpt>
      <trkpt lat="48.82995" lon="-3.52035">
        <ele>30.200000762939</ele>
        <time>2016-05-29T14:23:19.000Z</time>
      </trkpt>
      <trkpt lat="48.8299" lon="-3.52065">
        <ele>30.200000762939</ele>
        <time>2016-05-29T14:23:26.000Z</time>
      </trkpt>
      <trkpt lat="48.82988" lon="-3.52097">
        <ele>30</ele>
        <time>2016-05-29T14:23:33.000Z</time>
      </trkpt>
      <trkpt lat="48.82986" lon="-3.52125">
        <ele>30.39999961853</ele>
        <time>2016-05-29T14:23:40.000Z</time>
      </trkpt>
      <trkpt lat="48.82985" lon="-3.52156">
        <ele>30.60000038147</ele>
        <time>2016-05-29T14:23:47.000Z</time>
      </trkpt>
      <trkpt lat="48.82983" lon="-3.52172">
        <ele>30.60000038147</ele>
        <time>2016-05-29T14:23:51.000Z</time>
      </trkpt>
      <trkpt lat="48.82972" lon="-3.52176">
        <ele>31.39999961853</ele>
        <time>2016-05-29T14:23:56.000Z</time>
      </trkpt>
      <trkpt lat="48.82954" lon="-3.52173">
        <ele>31.799999237061</ele>
        <time>2016-05-29T14:24:03.000Z</time>
      </trkpt>
      <trkpt lat="48.82935" lon="-3.52171">
        <ele>32</ele>
        <time>2016-05-29T14:24:10.000Z</time>
      </trkpt>
      <trkpt lat="48.82921" lon="-3.52167">
        <ele>32</ele>
        <time>2016-05-29T14:24:15.000Z</time>
      </trkpt>
      <trkpt lat="48.82915" lon="-3.52137">
        <ele>32.400001525879</ele>
        <time>2016-05-29T14:24:22.000Z</time>
      </trkpt>
      <trkpt lat="48.82915" lon="-3.52133">
        <ele>32.599998474121</ele>
        <time>2016-05-29T14:24:23.000Z</time>
      </trkpt>
      <trkpt lat="48.82915" lon="-3.52124">
        <ele>32.599998474121</ele>
        <time>2016-05-29T14:24:25.000Z</time>
      </trkpt>
      <trkpt lat="48.82913" lon="-3.52093">
        <ele>33</ele>
        <time>2016-05-29T14:24:32.000Z</time>
      </trkpt>
      <trkpt lat="48.82911" lon="-3.52063">
        <ele>33.400001525879</ele>
        <time>2016-05-29T14:24:39.000Z</time>
      </trkpt>
      <trkpt lat="48.8291" lon="-3.52047">
        <ele>33.799999237061</ele>
        <time>2016-05-29T14:24:43.000Z</time>
      </trkpt>
      <trkpt lat="48.82909" lon="-3.52019">
        <ele>34.200000762939</ele>
        <time>2016-05-29T14:24:50.000Z</time>
      </trkpt>
      <trkpt lat="48.82907" lon="-3.52008">
        <ele>34.799999237061</ele>
        <time>2016-05-29T14:24:53.000Z</time>
      </trkpt>
      <trkpt lat="48.82905" lon="-3.51984">
        <ele>36</ele>
        <time>2016-05-29T14:25:00.000Z</time>
      </trkpt>
      <trkpt lat="48.82904" lon="-3.51965">
        <ele>37.200000762939</ele>
        <time>2016-05-29T14:25:06.000Z</time>
      </trkpt>
      <trkpt lat="48.82902" lon="-3.5194">
        <ele>38.200000762939</ele>
        <time>2016-05-29T14:25:13.000Z</time>
      </trkpt>
      <trkpt lat="48.82899" lon="-3.5192">
        <ele>39.200000762939</ele>
        <time>2016-05-29T14:25:18.000Z</time>
      </trkpt>
      <trkpt lat="48.82898" lon="-3.51908">
        <ele>40.400001525879</ele>
        <time>2016-05-29T14:25:23.000Z</time>
      </trkpt>
      <trkpt lat="48.82895" lon="-3.51893">
        <ele>41.599998474121</ele>
        <time>2016-05-29T14:25:29.000Z</time>
      </trkpt>
      <trkpt lat="48.82892" lon="-3.51876">
        <ele>42.799999237061</ele>
        <time>2016-05-29T14:25:35.000Z</time>
      </trkpt>
      <trkpt lat="48.82889" lon="-3.51864">
        <ele>43.799999237061</ele>
        <time>2016-05-29T14:25:40.000Z</time>
      </trkpt>
      <trkpt lat="48.82885" lon="-3.51852">
        <ele>45</ele>
        <time>2016-05-29T14:25:46.000Z</time>
      </trkpt>
      <trkpt lat="48.82884" lon="-3.51843">
        <ele>46.200000762939</ele>
        <time>2016-05-29T14:25:50.000Z</time>
      </trkpt>
      <trkpt lat="48.82881" lon="-3.51828">
        <ele>47.200000762939</ele>
        <time>2016-05-29T14:25:55.000Z</time>
      </trkpt>
      <trkpt lat="48.82879" lon="-3.51815">
        <ele>48.400001525879</ele>
        <time>2016-05-29T14:25:59.000Z</time>
      </trkpt>
      <trkpt lat="48.82876" lon="-3.51799">
        <ele>49.400001525879</ele>
        <time>2016-05-29T14:26:04.000Z</time>
      </trkpt>
      <trkpt lat="48.82872" lon="-3.51781">
        <ele>50.400001525879</ele>
        <time>2016-05-29T14:26:10.000Z</time>
      </trkpt>
      <trkpt lat="48.82869" lon="-3.51765">
        <ele>51.400001525879</ele>
        <time>2016-05-29T14:26:16.000Z</time>
      </trkpt>
      <trkpt lat="48.82868" lon="-3.51757">
        <ele>52.599998474121</ele>
        <time>2016-05-29T14:26:19.000Z</time>
      </trkpt>
      <trkpt lat="48.82869" lon="-3.51749">
        <ele>53.200000762939</ele>
        <time>2016-05-29T14:26:22.000Z</time>
      </trkpt>
      <trkpt lat="48.82873" lon="-3.51748">
        <ele>54</ele>
        <time>2016-05-29T14:26:24.000Z</time>
      </trkpt>
      <trkpt lat="48.82886" lon="-3.51753">
        <ele>55</ele>
        <time>2016-05-29T14:26:30.000Z</time>
      </trkpt>
      <trkpt lat="48.82902" lon="-3.51765">
        <ele>55.400001525879</ele>
        <time>2016-05-29T14:26:37.000Z</time>
      </trkpt>
      <trkpt lat="48.82917" lon="-3.51775">
        <ele>56.200000762939</ele>
        <time>2016-05-29T14:26:44.000Z</time>
      </trkpt>
      <trkpt lat="48.82936" lon="-3.51779">
        <ele>56.599998474121</ele>
        <time>2016-05-29T14:26:52.000Z</time>
      </trkpt>
      <trkpt lat="48.82955" lon="-3.51771">
        <ele>57</ele>
        <time>2016-05-29T14:26:59.000Z</time>
      </trkpt>
      <trkpt lat="48.82957" lon="-3.51769">
        <ele>57.200000762939</ele>
        <time>2016-05-29T14:27:00.000Z</time>
      </trkpt>
      <trkpt lat="48.82967" lon="-3.51754">
        <ele>56.799999237061</ele>
        <time>2016-05-29T14:27:09.000Z</time>
      </trkpt>
      <trkpt lat="48.82974" lon="-3.51742">
        <ele>56</ele>
        <time>2016-05-29T14:27:13.000Z</time>
      </trkpt>
      <trkpt lat="48.82983" lon="-3.51717">
        <ele>55.599998474121</ele>
        <time>2016-05-29T14:27:19.000Z</time>
      </trkpt>
      <trkpt lat="48.82986" lon="-3.51692">
        <ele>55.599998474121</ele>
        <time>2016-05-29T14:27:25.000Z</time>
      </trkpt>
      <trkpt lat="48.8299" lon="-3.51661">
        <ele>56</ele>
        <time>2016-05-29T14:27:33.000Z</time>
      </trkpt>
      <trkpt lat="48.82988" lon="-3.51632">
        <ele>56.200000762939</ele>
        <time>2016-05-29T14:27:40.000Z</time>
      </trkpt>
      <trkpt lat="48.82982" lon="-3.51604">
        <ele>56.599998474121</ele>
        <time>2016-05-29T14:27:47.000Z</time>
      </trkpt>
      <trkpt lat="48.82976" lon="-3.51597">
        <ele>57</ele>
        <time>2016-05-29T14:27:50.000Z</time>
      </trkpt>
      <trkpt lat="48.82958" lon="-3.51584">
        <ele>57.599998474121</ele>
        <time>2016-05-29T14:27:57.000Z</time>
      </trkpt>
      <trkpt lat="48.82938" lon="-3.51574">
        <ele>57.200000762939</ele>
        <time>2016-05-29T14:28:04.000Z</time>
      </trkpt>
      <trkpt lat="48.82921" lon="-3.51565">
        <ele>56.400001525879</ele>
        <time>2016-05-29T14:28:10.000Z</time>
      </trkpt>
      <trkpt lat="48.82915" lon="-3.51562">
        <ele>56</ele>
        <time>2016-05-29T14:28:12.000Z</time>
      </trkpt>
      <trkpt lat="48.82897" lon="-3.51553">
        <ele>54.799999237061</ele>
        <time>2016-05-29T14:28:18.000Z</time>
      </trkpt>
      <trkpt lat="48.82884" lon="-3.51543">
        <ele>53.599998474121</ele>
        <time>2016-05-29T14:28:23.000Z</time>
      </trkpt>
      <trkpt lat="48.82883" lon="-3.51539">
        <ele>53.200000762939</ele>
        <time>2016-05-29T14:28:24.000Z</time>
      </trkpt>
      <trkpt lat="48.82885" lon="-3.51532">
        <ele>53.200000762939</ele>
        <time>2016-05-29T14:28:26.000Z</time>
      </trkpt>
      <trkpt lat="48.82901" lon="-3.51512">
        <ele>53.200000762939</ele>
        <time>2016-05-29T14:28:33.000Z</time>
      </trkpt>
      <trkpt lat="48.8291" lon="-3.51503">
        <ele>52.400001525879</ele>
        <time>2016-05-29T14:28:37.000Z</time>
      </trkpt>
      <trkpt lat="48.82926" lon="-3.51488">
        <ele>51.799999237061</ele>
        <time>2016-05-29T14:28:44.000Z</time>
      </trkpt>
      <trkpt lat="48.82931" lon="-3.51482">
        <ele>51.400001525879</ele>
        <time>2016-05-29T14:28:46.000Z</time>
      </trkpt>
      <trkpt lat="48.82943" lon="-3.51474">
        <ele>50.200000762939</ele>
        <time>2016-05-29T14:28:50.000Z</time>
      </trkpt>
      <trkpt lat="48.82958" lon="-3.51462">
        <ele>49.200000762939</ele>
        <time>2016-05-29T14:28:55.000Z</time>
      </trkpt>
      <trkpt lat="48.82964" lon="-3.51457">
        <ele>47.799999237061</ele>
        <time>2016-05-29T14:28:57.000Z</time>
      </trkpt>
      <trkpt lat="48.82981" lon="-3.51441">
        <ele>47.400001525879</ele>
        <time>2016-05-29T14:29:03.000Z</time>
      </trkpt>
      <trkpt lat="48.82989" lon="-3.51433">
        <ele>46.599998474121</ele>
        <time>2016-05-29T14:29:06.000Z</time>
      </trkpt>
      <trkpt lat="48.82999" lon="-3.51413">
        <ele>45.400001525879</ele>
        <time>2016-05-29T14:29:11.000Z</time>
      </trkpt>
      <trkpt lat="48.83004" lon="-3.51394">
        <ele>44.400001525879</ele>
        <time>2016-05-29T14:29:15.000Z</time>
      </trkpt>
      <trkpt lat="48.8301" lon="-3.51373">
        <ele>43.200000762939</ele>
        <time>2016-05-29T14:29:20.000Z</time>
      </trkpt>
      <trkpt lat="48.83015" lon="-3.51371">
        <ele>42.799999237061</ele>
        <time>2016-05-29T14:29:22.000Z</time>
      </trkpt>
      <trkpt lat="48.83026" lon="-3.51373">
        <ele>42.200000762939</ele>
        <time>2016-05-29T14:29:26.000Z</time>
      </trkpt>
      <trkpt lat="48.83043" lon="-3.51374">
        <ele>41</ele>
        <time>2016-05-29T14:29:31.000Z</time>
      </trkpt>
      <trkpt lat="48.83063" lon="-3.51376">
        <ele>40.599998474121</ele>
        <time>2016-05-29T14:29:37.000Z</time>
      </trkpt>
      <trkpt lat="48.83072" lon="-3.51373">
        <ele>39.799999237061</ele>
        <time>2016-05-29T14:29:40.000Z</time>
      </trkpt>
      <trkpt lat="48.8308" lon="-3.51363">
        <ele>38.599998474121</ele>
        <time>2016-05-29T14:29:43.000Z</time>
      </trkpt>
      <trkpt lat="48.83091" lon="-3.51344">
        <ele>37.200000762939</ele>
        <time>2016-05-29T14:29:48.000Z</time>
      </trkpt>
      <trkpt lat="48.83092" lon="-3.51329">
        <ele>36.799999237061</ele>
        <time>2016-05-29T14:29:52.000Z</time>
      </trkpt>
      <trkpt lat="48.83074" lon="-3.51314">
        <ele>37</ele>
        <time>2016-05-29T14:29:59.000Z</time>
      </trkpt>
      <trkpt lat="48.83057" lon="-3.51302">
        <ele>36.400001525879</ele>
        <time>2016-05-29T14:30:05.000Z</time>
      </trkpt>
      <trkpt lat="48.83054" lon="-3.51295">
        <ele>36.400001525879</ele>
        <time>2016-05-29T14:30:07.000Z</time>
      </trkpt>
      <trkpt lat="48.83052" lon="-3.51265">
        <ele>36.400001525879</ele>
        <time>2016-05-29T14:30:15.000Z</time>
      </trkpt>
      <trkpt lat="48.83053" lon="-3.51249">
        <ele>36.200000762939</ele>
        <time>2016-05-29T14:30:19.000Z</time>
      </trkpt>
      <trkpt lat="48.83069" lon="-3.51225">
        <ele>36.200000762939</ele>
        <time>2016-05-29T14:30:25.000Z</time>
      </trkpt>
      <trkpt lat="48.83083" lon="-3.51206">
        <ele>36.200000762939</ele>
        <time>2016-05-29T14:30:30.000Z</time>
      </trkpt>
      <trkpt lat="48.83097" lon="-3.51189">
        <ele>37.200000762939</ele>
        <time>2016-05-29T14:30:36.000Z</time>
      </trkpt>
      <trkpt lat="48.83102" lon="-3.51176">
        <ele>37.400001525879</ele>
        <time>2016-05-29T14:30:39.000Z</time>
      </trkpt>
      <trkpt lat="48.83111" lon="-3.51151">
        <ele>36.799999237061</ele>
        <time>2016-05-29T14:30:45.000Z</time>
      </trkpt>
      <trkpt lat="48.83117" lon="-3.51141">
        <ele>36.200000762939</ele>
        <time>2016-05-29T14:30:48.000Z</time>
      </trkpt>
      <trkpt lat="48.83127" lon="-3.51131">
        <ele>35</ele>
        <time>2016-05-29T14:30:53.000Z</time>
      </trkpt>
      <trkpt lat="48.83146" lon="-3.51124">
        <ele>34.200000762939</ele>
        <time>2016-05-29T14:31:00.000Z</time>
      </trkpt>
      <trkpt lat="48.83152" lon="-3.51124">
        <ele>34</ele>
        <time>2016-05-29T14:31:02.000Z</time>
      </trkpt>
      <trkpt lat="48.83171" lon="-3.51119">
        <ele>32.400001525879</ele>
        <time>2016-05-29T14:31:08.000Z</time>
      </trkpt>
      <trkpt lat="48.83176" lon="-3.51092">
        <ele>31.799999237061</ele>
        <time>2016-05-29T14:31:14.000Z</time>
      </trkpt>
      <trkpt lat="48.83177" lon="-3.51078">
        <ele>31.200000762939</ele>
        <time>2016-05-29T14:31:17.000Z</time>
      </trkpt>
      <trkpt lat="48.83179" lon="-3.51046">
        <ele>30.799999237061</ele>
        <time>2016-05-29T14:31:24.000Z</time>
      </trkpt>
      <trkpt lat="48.83183" lon="-3.51015">
        <ele>30.799999237061</ele>
        <time>2016-05-29T14:31:31.000Z</time>
      </trkpt>
      <trkpt lat="48.83188" lon="-3.51004">
        <ele>30</ele>
        <time>2016-05-29T14:31:34.000Z</time>
      </trkpt>
      <trkpt lat="48.83201" lon="-3.50984">
        <ele>29.39999961853</ele>
        <time>2016-05-29T14:31:40.000Z</time>
      </trkpt>
      <trkpt lat="48.83221" lon="-3.50981">
        <ele>29.39999961853</ele>
        <time>2016-05-29T14:31:47.000Z</time>
      </trkpt>
      <trkpt lat="48.83229" lon="-3.50983">
        <ele>29</ele>
        <time>2016-05-29T14:31:50.000Z</time>
      </trkpt>
      <trkpt lat="48.83248" lon="-3.50991">
        <ele>29</ele>
        <time>2016-05-29T14:31:57.000Z</time>
      </trkpt>
      <trkpt lat="48.83268" lon="-3.50999">
        <ele>28.799999237061</ele>
        <time>2016-05-29T14:32:04.000Z</time>
      </trkpt>
      <trkpt lat="48.83286" lon="-3.51011">
        <ele>28.39999961853</ele>
        <time>2016-05-29T14:32:11.000Z</time>
      </trkpt>
      <trkpt lat="48.83299" lon="-3.5102">
        <ele>28</ele>
        <time>2016-05-29T14:32:16.000Z</time>
      </trkpt>
      <trkpt lat="48.83318" lon="-3.51032">
        <ele>28</ele>
        <time>2016-05-29T14:32:23.000Z</time>
      </trkpt>
      <trkpt lat="48.83336" lon="-3.51045">
        <ele>27.60000038147</ele>
        <time>2016-05-29T14:32:30.000Z</time>
      </trkpt>
      <trkpt lat="48.83352" lon="-3.51056">
        <ele>27.799999237061</ele>
        <time>2016-05-29T14:32:37.000Z</time>
      </trkpt>
      <trkpt lat="48.8337" lon="-3.51066">
        <ele>27.799999237061</ele>
        <time>2016-05-29T14:32:45.000Z</time>
      </trkpt>
      <trkpt lat="48.83389" lon="-3.51074">
        <ele>27.799999237061</ele>
        <time>2016-05-29T14:32:52.000Z</time>
      </trkpt>
      <trkpt lat="48.83409" lon="-3.51077">
        <ele>28.799999237061</ele>
        <time>2016-05-29T14:32:59.000Z</time>
      </trkpt>
      <trkpt lat="48.83428" lon="-3.5108">
        <ele>28.799999237061</ele>
        <time>2016-05-29T14:33:06.000Z</time>
      </trkpt>
      <trkpt lat="48.83437" lon="-3.51069">
        <ele>29.200000762939</ele>
        <time>2016-05-29T14:33:11.000Z</time>
      </trkpt>
      <trkpt lat="48.83446" lon="-3.51042">
        <ele>29.39999961853</ele>
        <time>2016-05-29T14:33:19.000Z</time>
      </trkpt>
      <trkpt lat="48.83455" lon="-3.51018">
        <ele>29.39999961853</ele>
        <time>2016-05-29T14:33:26.000Z</time>
      </trkpt>
      <trkpt lat="48.83461" lon="-3.50996">
        <ele>30.200000762939</ele>
        <time>2016-05-29T14:33:32.000Z</time>
      </trkpt>
      <trkpt lat="48.83463" lon="-3.50982">
        <ele>30.200000762939</ele>
        <time>2016-05-29T14:33:36.000Z</time>
      </trkpt>
      <trkpt lat="48.8346" lon="-3.50952">
        <ele>30</ele>
        <time>2016-05-29T14:33:43.000Z</time>
      </trkpt>
      <trkpt lat="48.83461" lon="-3.50923">
        <ele>30.200000762939</ele>
        <time>2016-05-29T14:33:50.000Z</time>
      </trkpt>
      <trkpt lat="48.83463" lon="-3.50895">
        <ele>30.200000762939</ele>
        <time>2016-05-29T14:33:57.000Z</time>
      </trkpt>
      <trkpt lat="48.83465" lon="-3.50884">
        <ele>30.39999961853</ele>
        <time>2016-05-29T14:34:00.000Z</time>
      </trkpt>
      <trkpt lat="48.83468" lon="-3.50854">
        <ele>30.60000038147</ele>
        <time>2016-05-29T14:34:07.000Z</time>
      </trkpt>
      <trkpt lat="48.83473" lon="-3.50827">
        <ele>30.60000038147</ele>
        <time>2016-05-29T14:34:14.000Z</time>
      </trkpt>
      <trkpt lat="48.83466" lon="-3.50799">
        <ele>29.799999237061</ele>
        <time>2016-05-29T14:34:21.000Z</time>
      </trkpt>
      <trkpt lat="48.83464" lon="-3.50782">
        <ele>29</ele>
        <time>2016-05-29T14:34:25.000Z</time>
      </trkpt>
      <trkpt lat="48.83479" lon="-3.50761">
        <ele>28.200000762939</ele>
        <time>2016-05-29T14:34:32.000Z</time>
      </trkpt>
      <trkpt lat="48.83481" lon="-3.50759">
        <ele>28</ele>
        <time>2016-05-29T14:34:33.000Z</time>
      </trkpt>
      <trkpt lat="48.83487" lon="-3.50749">
        <ele>28.200000762939</ele>
        <time>2016-05-29T14:34:36.000Z</time>
      </trkpt>
      <trkpt lat="48.83483" lon="-3.5072">
        <ele>27.799999237061</ele>
        <time>2016-05-29T14:34:43.000Z</time>
      </trkpt>
      <trkpt lat="48.8347" lon="-3.50696">
        <ele>28</ele>
        <time>2016-05-29T14:34:50.000Z</time>
      </trkpt>
      <trkpt lat="48.83457" lon="-3.50673">
        <ele>28</ele>
        <time>2016-05-29T14:34:57.000Z</time>
      </trkpt>
      <trkpt lat="48.83445" lon="-3.50652">
        <ele>28</ele>
        <time>2016-05-29T14:35:04.000Z</time>
      </trkpt>
      <trkpt lat="48.83432" lon="-3.50631">
        <ele>27.799999237061</ele>
        <time>2016-05-29T14:35:11.000Z</time>
      </trkpt>
      <trkpt lat="48.8342" lon="-3.50609">
        <ele>28</ele>
        <time>2016-05-29T14:35:18.000Z</time>
      </trkpt>
      <trkpt lat="48.83407" lon="-3.50589">
        <ele>28</ele>
        <time>2016-05-29T14:35:24.000Z</time>
      </trkpt>
      <trkpt lat="48.83395" lon="-3.50569">
        <ele>28.200000762939</ele>
        <time>2016-05-29T14:35:31.000Z</time>
      </trkpt>
      <trkpt lat="48.83383" lon="-3.50546">
        <ele>28.60000038147</ele>
        <time>2016-05-29T14:35:40.000Z</time>
      </trkpt>
      <trkpt lat="48.83378" lon="-3.50534">
        <ele>29</ele>
        <time>2016-05-29T14:35:44.000Z</time>
      </trkpt>
      <trkpt lat="48.83371" lon="-3.50517">
        <ele>30.200000762939</ele>
        <time>2016-05-29T14:35:49.000Z</time>
      </trkpt>
      <trkpt lat="48.83362" lon="-3.50499">
        <ele>30.39999961853</ele>
        <time>2016-05-29T14:35:55.000Z</time>
      </trkpt>
      <trkpt lat="48.83374" lon="-3.50488">
        <ele>31.200000762939</ele>
        <time>2016-05-29T14:36:01.000Z</time>
      </trkpt>
      <trkpt lat="48.83384" lon="-3.50464">
        <ele>31.39999961853</ele>
        <time>2016-05-29T14:36:09.000Z</time>
      </trkpt>
      <trkpt lat="48.83402" lon="-3.50454">
        <ele>31.39999961853</ele>
        <time>2016-05-29T14:36:17.000Z</time>
      </trkpt>
      <trkpt lat="48.83419" lon="-3.50443">
        <ele>30</ele>
        <time>2016-05-29T14:36:24.000Z</time>
      </trkpt>
      <trkpt lat="48.83439" lon="-3.50434">
        <ele>30.39999961853</ele>
        <time>2016-05-29T14:36:31.000Z</time>
      </trkpt>
      <trkpt lat="48.83457" lon="-3.50429">
        <ele>31</ele>
        <time>2016-05-29T14:36:38.000Z</time>
      </trkpt>
      <trkpt lat="48.83458" lon="-3.50427">
        <ele>31.200000762939</ele>
        <time>2016-05-29T14:36:39.000Z</time>
      </trkpt>
      <trkpt lat="48.83465" lon="-3.50402">
        <ele>30.60000038147</ele>
        <time>2016-05-29T14:36:46.000Z</time>
      </trkpt>
      <trkpt lat="48.83481" lon="-3.50385">
        <ele>31.200000762939</ele>
        <time>2016-05-29T14:36:53.000Z</time>
      </trkpt>
      <trkpt lat="48.83495" lon="-3.50367">
        <ele>31.60000038147</ele>
        <time>2016-05-29T14:37:00.000Z</time>
      </trkpt>
      <trkpt lat="48.8351" lon="-3.5035">
        <ele>30.39999961853</ele>
        <time>2016-05-29T14:37:07.000Z</time>
      </trkpt>
      <trkpt lat="48.83517" lon="-3.50342">
        <ele>30.200000762939</ele>
        <time>2016-05-29T14:37:10.000Z</time>
      </trkpt>
      <trkpt lat="48.83531" lon="-3.50323">
        <ele>29.39999961853</ele>
        <time>2016-05-29T14:37:17.000Z</time>
      </trkpt>
      <trkpt lat="48.83546" lon="-3.50304">
        <ele>29.39999961853</ele>
        <time>2016-05-29T14:37:24.000Z</time>
      </trkpt>
      <trkpt lat="48.8355" lon="-3.50303">
        <ele>29.39999961853</ele>
        <time>2016-05-29T14:37:26.000Z</time>
      </trkpt>
      <trkpt lat="48.83564" lon="-3.50324">
        <ele>29.39999961853</ele>
        <time>2016-05-29T14:37:34.000Z</time>
      </trkpt>
      <trkpt lat="48.83574" lon="-3.50348">
        <ele>30</ele>
        <time>2016-05-29T14:37:41.000Z</time>
      </trkpt>
      <trkpt lat="48.83592" lon="-3.50355">
        <ele>30.39999961853</ele>
        <time>2016-05-29T14:37:48.000Z</time>
      </trkpt>
      <trkpt lat="48.83611" lon="-3.50356">
        <ele>30.60000038147</ele>
        <time>2016-05-29T14:37:55.000Z</time>
      </trkpt>
      <trkpt lat="48.83628" lon="-3.50353">
        <ele>31.200000762939</ele>
        <time>2016-05-29T14:38:01.000Z</time>
      </trkpt>
      <trkpt lat="48.83647" lon="-3.50344">
        <ele>32.400001525879</ele>
        <time>2016-05-29T14:38:09.000Z</time>
      </trkpt>
      <trkpt lat="48.83665" lon="-3.50336">
        <ele>32.799999237061</ele>
        <time>2016-05-29T14:38:16.000Z</time>
      </trkpt>
      <trkpt lat="48.83685" lon="-3.50333">
        <ele>33.200000762939</ele>
        <time>2016-05-29T14:38:23.000Z</time>
      </trkpt>
      <trkpt lat="48.83703" lon="-3.50335">
        <ele>33.200000762939</ele>
        <time>2016-05-29T14:38:30.000Z</time>
      </trkpt>
      <trkpt lat="48.83719" lon="-3.50348">
        <ele>33.200000762939</ele>
        <time>2016-05-29T14:38:37.000Z</time>
      </trkpt>
      <trkpt lat="48.83733" lon="-3.50371">
        <ele>32.200000762939</ele>
        <time>2016-05-29T14:38:44.000Z</time>
      </trkpt>
      <trkpt lat="48.83743" lon="-3.50378">
        <ele>31</ele>
        <time>2016-05-29T14:38:48.000Z</time>
      </trkpt>
      <trkpt lat="48.83761" lon="-3.50381">
        <ele>30.39999961853</ele>
        <time>2016-05-29T14:38:54.000Z</time>
      </trkpt>
      <trkpt lat="48.8378" lon="-3.50381">
        <ele>30</ele>
        <time>2016-05-29T14:39:00.000Z</time>
      </trkpt>
      <trkpt lat="48.83783" lon="-3.50381">
        <ele>30</ele>
        <time>2016-05-29T14:39:01.000Z</time>
      </trkpt>
      <trkpt lat="48.83801" lon="-3.50381">
        <ele>30.60000038147</ele>
        <time>2016-05-29T14:39:08.000Z</time>
      </trkpt>
      <trkpt lat="48.8382" lon="-3.50382">
        <ele>30.799999237061</ele>
        <time>2016-05-29T14:39:16.000Z</time>
      </trkpt>
      <trkpt lat="48.83832" lon="-3.50387">
        <ele>31</ele>
        <time>2016-05-29T14:39:21.000Z</time>
      </trkpt>
      <trkpt lat="48.83826" lon="-3.50415">
        <ele>30.799999237061</ele>
        <time>2016-05-29T14:39:28.000Z</time>
      </trkpt>
      <trkpt lat="48.83808" lon="-3.50429">
        <ele>31</ele>
        <time>2016-05-29T14:39:35.000Z</time>
      </trkpt>
      <trkpt lat="48.83791" lon="-3.50442">
        <ele>31.200000762939</ele>
        <time>2016-05-29T14:39:42.000Z</time>
      </trkpt>
      <trkpt lat="48.83775" lon="-3.50459">
        <ele>31.200000762939</ele>
        <time>2016-05-29T14:39:49.000Z</time>
      </trkpt>
      <trkpt lat="48.8376" lon="-3.50476">
        <ele>31.200000762939</ele>
        <time>2016-05-29T14:39:55.000Z</time>
      </trkpt>
      <trkpt lat="48.83746" lon="-3.50495">
        <ele>31.200000762939</ele>
        <time>2016-05-29T14:40:02.000Z</time>
      </trkpt>
      <trkpt lat="48.83733" lon="-3.50516">
        <ele>31.39999961853</ele>
        <time>2016-05-29T14:40:09.000Z</time>
      </trkpt>
      <trkpt lat="48.83722" lon="-3.50539">
        <ele>31.200000762939</ele>
        <time>2016-05-29T14:40:16.000Z</time>
      </trkpt>
      <trkpt lat="48.83712" lon="-3.50564">
        <ele>30.799999237061</ele>
        <time>2016-05-29T14:40:23.000Z</time>
      </trkpt>
      <trkpt lat="48.83702" lon="-3.5059">
        <ele>30.39999961853</ele>
        <time>2016-05-29T14:40:30.000Z</time>
      </trkpt>
      <trkpt lat="48.83695" lon="-3.50608">
        <ele>30</ele>
        <time>2016-05-29T14:40:35.000Z</time>
      </trkpt>
      <trkpt lat="48.83683" lon="-3.50632">
        <ele>29.60000038147</ele>
        <time>2016-05-29T14:40:42.000Z</time>
      </trkpt>
      <trkpt lat="48.83669" lon="-3.50651">
        <ele>29.39999961853</ele>
        <time>2016-05-29T14:40:49.000Z</time>
      </trkpt>
      <trkpt lat="48.83657" lon="-3.50673">
        <ele>30</ele>
        <time>2016-05-29T14:40:56.000Z</time>
      </trkpt>
      <trkpt lat="48.83651" lon="-3.50682">
        <ele>30.200000762939</ele>
        <time>2016-05-29T14:40:59.000Z</time>
      </trkpt>
      <trkpt lat="48.83638" lon="-3.50702">
        <ele>30.39999961853</ele>
        <time>2016-05-29T14:41:06.000Z</time>
      </trkpt>
      <trkpt lat="48.83623" lon="-3.50722">
        <ele>31</ele>
        <time>2016-05-29T14:41:14.000Z</time>
      </trkpt>
      <trkpt lat="48.83608" lon="-3.50739">
        <ele>31.200000762939</ele>
        <time>2016-05-29T14:41:21.000Z</time>
      </trkpt>
      <trkpt lat="48.83593" lon="-3.50758">
        <ele>31.200000762939</ele>
        <time>2016-05-29T14:41:28.000Z</time>
      </trkpt>
      <trkpt lat="48.83578" lon="-3.50776">
        <ele>31.39999961853</ele>
        <time>2016-05-29T14:41:35.000Z</time>
      </trkpt>
      <trkpt lat="48.83565" lon="-3.508">
        <ele>32</ele>
        <time>2016-05-29T14:41:43.000Z</time>
      </trkpt>
      <trkpt lat="48.83561" lon="-3.50805">
        <ele>32.200000762939</ele>
        <time>2016-05-29T14:41:45.000Z</time>
      </trkpt>
      <trkpt lat="48.83548" lon="-3.50829">
        <ele>32.400001525879</ele>
        <time>2016-05-29T14:41:53.000Z</time>
      </trkpt>
      <trkpt lat="48.83537" lon="-3.50853">
        <ele>32.799999237061</ele>
        <time>2016-05-29T14:42:00.000Z</time>
      </trkpt>
      <trkpt lat="48.83523" lon="-3.5087">
        <ele>32.400001525879</ele>
        <time>2016-05-29T14:42:07.000Z</time>
      </trkpt>
      <trkpt lat="48.83516" lon="-3.50875">
        <ele>32.200000762939</ele>
        <time>2016-05-29T14:42:10.000Z</time>
      </trkpt>
      <trkpt lat="48.83517" lon="-3.50902">
        <ele>32.400001525879</ele>
        <time>2016-05-29T14:42:17.000Z</time>
      </trkpt>
      <trkpt lat="48.83509" lon="-3.5093">
        <ele>31.799999237061</ele>
        <time>2016-05-29T14:42:24.000Z</time>
      </trkpt>
      <trkpt lat="48.83502" lon="-3.50958">
        <ele>31.39999961853</ele>
        <time>2016-05-29T14:42:30.000Z</time>
      </trkpt>
      <trkpt lat="48.83499" lon="-3.50966">
        <ele>31.39999961853</ele>
        <time>2016-05-29T14:42:32.000Z</time>
      </trkpt>
      <trkpt lat="48.83496" lon="-3.50985">
        <ele>30.60000038147</ele>
        <time>2016-05-29T14:42:36.000Z</time>
      </trkpt>
      <trkpt lat="48.83493" lon="-3.5099">
        <ele>30.60000038147</ele>
        <time>2016-05-29T14:42:38.000Z</time>
      </trkpt>
      <trkpt lat="48.8349" lon="-3.50995">
        <ele>31</ele>
        <time>2016-05-29T14:42:40.000Z</time>
      </trkpt>
      <trkpt lat="48.83491" lon="-3.51022">
        <ele>31</ele>
        <time>2016-05-29T14:42:46.000Z</time>
      </trkpt>
      <trkpt lat="48.83487" lon="-3.51049">
        <ele>30.200000762939</ele>
        <time>2016-05-29T14:42:53.000Z</time>
      </trkpt>
      <trkpt lat="48.83477" lon="-3.51074">
        <ele>29.60000038147</ele>
        <time>2016-05-29T14:43:00.000Z</time>
      </trkpt>
      <trkpt lat="48.83471" lon="-3.51092">
        <ele>28.60000038147</ele>
        <time>2016-05-29T14:43:05.000Z</time>
      </trkpt>
      <trkpt lat="48.83467" lon="-3.51096">
        <ele>28.200000762939</ele>
        <time>2016-05-29T14:43:07.000Z</time>
      </trkpt>
      <trkpt lat="48.83448" lon="-3.51096">
        <ele>27.799999237061</ele>
        <time>2016-05-29T14:43:14.000Z</time>
      </trkpt>
      <trkpt lat="48.83446" lon="-3.51096">
        <ele>27.60000038147</ele>
        <time>2016-05-29T14:43:15.000Z</time>
      </trkpt>
      <trkpt lat="48.83428" lon="-3.51093">
        <ele>27.799999237061</ele>
        <time>2016-05-29T14:43:22.000Z</time>
      </trkpt>
      <trkpt lat="48.83409" lon="-3.51094">
        <ele>27.60000038147</ele>
        <time>2016-05-29T14:43:29.000Z</time>
      </trkpt>
      <trkpt lat="48.83393" lon="-3.51114">
        <ele>27.799999237061</ele>
        <time>2016-05-29T14:43:37.000Z</time>
      </trkpt>
      <trkpt lat="48.83386" lon="-3.51131">
        <ele>28.799999237061</ele>
        <time>2016-05-29T14:43:43.000Z</time>
      </trkpt>
      <trkpt lat="48.83374" lon="-3.51152">
        <ele>29.799999237061</ele>
        <time>2016-05-29T14:43:51.000Z</time>
      </trkpt>
      <trkpt lat="48.83373" lon="-3.51157">
        <ele>29.799999237061</ele>
        <time>2016-05-29T14:43:52.000Z</time>
      </trkpt>
      <trkpt lat="48.83364" lon="-3.51181">
        <ele>30.799999237061</ele>
        <time>2016-05-29T14:43:59.000Z</time>
      </trkpt>
      <trkpt lat="48.83361" lon="-3.51188">
        <ele>31</ele>
        <time>2016-05-29T14:44:01.000Z</time>
      </trkpt>
      <trkpt lat="48.8335" lon="-3.51214">
        <ele>32</ele>
        <time>2016-05-29T14:44:09.000Z</time>
      </trkpt>
      <trkpt lat="48.83348" lon="-3.51216">
        <ele>32</ele>
        <time>2016-05-29T14:44:10.000Z</time>
      </trkpt>
      <trkpt lat="48.83337" lon="-3.51239">
        <ele>32.799999237061</ele>
        <time>2016-05-29T14:44:17.000Z</time>
      </trkpt>
      <trkpt lat="48.8333" lon="-3.51249">
        <ele>33.400001525879</ele>
        <time>2016-05-29T14:44:21.000Z</time>
      </trkpt>
      <trkpt lat="48.83313" lon="-3.51264">
        <ele>33.599998474121</ele>
        <time>2016-05-29T14:44:29.000Z</time>
      </trkpt>
      <trkpt lat="48.83294" lon="-3.51269">
        <ele>33.599998474121</ele>
        <time>2016-05-29T14:44:37.000Z</time>
      </trkpt>
      <trkpt lat="48.83275" lon="-3.5128">
        <ele>33</ele>
        <time>2016-05-29T14:44:44.000Z</time>
      </trkpt>
      <trkpt lat="48.83264" lon="-3.51305">
        <ele>32.599998474121</ele>
        <time>2016-05-29T14:44:51.000Z</time>
      </trkpt>
      <trkpt lat="48.83264" lon="-3.51318">
        <ele>32.200000762939</ele>
        <time>2016-05-29T14:44:54.000Z</time>
      </trkpt>
      <trkpt lat="48.83267" lon="-3.51347">
        <ele>31.39999961853</ele>
        <time>2016-05-29T14:45:01.000Z</time>
      </trkpt>
      <trkpt lat="48.83273" lon="-3.51371">
        <ele>31</ele>
        <time>2016-05-29T14:45:07.000Z</time>
      </trkpt>
      <trkpt lat="48.83275" lon="-3.51399">
        <ele>30</ele>
        <time>2016-05-29T14:45:14.000Z</time>
      </trkpt>
      <trkpt lat="48.83275" lon="-3.51403">
        <ele>30</ele>
        <time>2016-05-29T14:45:15.000Z</time>
      </trkpt>
      <trkpt lat="48.83279" lon="-3.51431">
        <ele>30.200000762939</ele>
        <time>2016-05-29T14:45:22.000Z</time>
      </trkpt>
      <trkpt lat="48.83276" lon="-3.51449">
        <ele>31</ele>
        <time>2016-05-29T14:45:27.000Z</time>
      </trkpt>
      <trkpt lat="48.83278" lon="-3.51472">
        <ele>31.60000038147</ele>
        <time>2016-05-29T14:45:33.000Z</time>
      </trkpt>
      <trkpt lat="48.83272" lon="-3.5148">
        <ele>31.799999237061</ele>
        <time>2016-05-29T14:45:36.000Z</time>
      </trkpt>
      <trkpt lat="48.83253" lon="-3.51479">
        <ele>31.39999961853</ele>
        <time>2016-05-29T14:45:44.000Z</time>
      </trkpt>
      <trkpt lat="48.8324" lon="-3.51481">
        <ele>31.200000762939</ele>
        <time>2016-05-29T14:45:49.000Z</time>
      </trkpt>
      <trkpt lat="48.8323" lon="-3.5149">
        <ele>32</ele>
        <time>2016-05-29T14:45:54.000Z</time>
      </trkpt>
      <trkpt lat="48.83222" lon="-3.51513">
        <ele>33.400001525879</ele>
        <time>2016-05-29T14:46:01.000Z</time>
      </trkpt>
      <trkpt lat="48.83216" lon="-3.51538">
        <ele>34.400001525879</ele>
        <time>2016-05-29T14:46:09.000Z</time>
      </trkpt>
      <trkpt lat="48.8321" lon="-3.51563">
        <ele>35.200000762939</ele>
        <time>2016-05-29T14:46:16.000Z</time>
      </trkpt>
      <trkpt lat="48.83208" lon="-3.51571">
        <ele>35.400001525879</ele>
        <time>2016-05-29T14:46:18.000Z</time>
      </trkpt>
      <trkpt lat="48.83206" lon="-3.51601">
        <ele>35.599998474121</ele>
        <time>2016-05-29T14:46:26.000Z</time>
      </trkpt>
      <trkpt lat="48.83204" lon="-3.51629">
        <ele>35.200000762939</ele>
        <time>2016-05-29T14:46:33.000Z</time>
      </trkpt>
      <trkpt lat="48.83199" lon="-3.51645">
        <ele>34.400001525879</ele>
        <time>2016-05-29T14:46:37.000Z</time>
      </trkpt>
      <trkpt lat="48.83192" lon="-3.51658">
        <ele>34.400001525879</ele>
        <time>2016-05-29T14:46:41.000Z</time>
      </trkpt>
      <trkpt lat="48.83179" lon="-3.51677">
        <ele>35.400001525879</ele>
        <time>2016-05-29T14:46:48.000Z</time>
      </trkpt>
      <trkpt lat="48.83177" lon="-3.5168">
        <ele>35.400001525879</ele>
        <time>2016-05-29T14:46:49.000Z</time>
      </trkpt>
      <trkpt lat="48.83166" lon="-3.51691">
        <ele>36.599998474121</ele>
        <time>2016-05-29T14:46:55.000Z</time>
      </trkpt>
      <trkpt lat="48.83156" lon="-3.51701">
        <ele>37.599998474121</ele>
        <time>2016-05-29T14:47:01.000Z</time>
      </trkpt>
      <trkpt lat="48.83147" lon="-3.51713">
        <ele>38.799999237061</ele>
        <time>2016-05-29T14:47:07.000Z</time>
      </trkpt>
      <trkpt lat="48.83137" lon="-3.51726">
        <ele>39.799999237061</ele>
        <time>2016-05-29T14:47:13.000Z</time>
      </trkpt>
      <trkpt lat="48.83125" lon="-3.51738">
        <ele>41</ele>
        <time>2016-05-29T14:47:19.000Z</time>
      </trkpt>
      <trkpt lat="48.8312" lon="-3.51766">
        <ele>41.599998474121</ele>
        <time>2016-05-29T14:47:28.000Z</time>
      </trkpt>
      <trkpt lat="48.83119" lon="-3.5177">
        <ele>42</ele>
        <time>2016-05-29T14:47:30.000Z</time>
      </trkpt>
      <trkpt lat="48.83115" lon="-3.51774">
        <ele>43.200000762939</ele>
        <time>2016-05-29T14:47:34.000Z</time>
      </trkpt>
      <trkpt lat="48.83113" lon="-3.51778">
        <ele>43.799999237061</ele>
        <time>2016-05-29T14:47:36.000Z</time>
      </trkpt>
      <trkpt lat="48.83111" lon="-3.5178">
        <ele>44.400001525879</ele>
        <time>2016-05-29T14:47:38.000Z</time>
      </trkpt>
      <trkpt lat="48.83109" lon="-3.51783">
        <ele>45.599998474121</ele>
        <time>2016-05-29T14:47:41.000Z</time>
      </trkpt>
      <trkpt lat="48.83104" lon="-3.51784">
        <ele>46.599998474121</ele>
        <time>2016-05-29T14:47:45.000Z</time>
      </trkpt>
      <trkpt lat="48.83101" lon="-3.51784">
        <ele>46.799999237061</ele>
        <time>2016-05-29T14:47:46.000Z</time>
      </trkpt>
      <trkpt lat="48.83081" lon="-3.51791">
        <ele>47.599998474121</ele>
        <time>2016-05-29T14:47:54.000Z</time>
      </trkpt>
      <trkpt lat="48.83079" lon="-3.51792">
        <ele>47.799999237061</ele>
        <time>2016-05-29T14:47:55.000Z</time>
      </trkpt>
      <trkpt lat="48.83066" lon="-3.51793">
        <ele>48.799999237061</ele>
        <time>2016-05-29T14:48:00.000Z</time>
      </trkpt>
      <trkpt lat="48.83048" lon="-3.51784">
        <ele>49.400001525879</ele>
        <time>2016-05-29T14:48:08.000Z</time>
      </trkpt>
      <trkpt lat="48.83041" lon="-3.51781">
        <ele>50</ele>
        <time>2016-05-29T14:48:11.000Z</time>
      </trkpt>
      <trkpt lat="48.83028" lon="-3.51775">
        <ele>51.200000762939</ele>
        <time>2016-05-29T14:48:17.000Z</time>
      </trkpt>
      <trkpt lat="48.83017" lon="-3.51772">
        <ele>52.200000762939</ele>
        <time>2016-05-29T14:48:22.000Z</time>
      </trkpt>
      <trkpt lat="48.83002" lon="-3.51766">
        <ele>53.200000762939</ele>
        <time>2016-05-29T14:48:29.000Z</time>
      </trkpt>
      <trkpt lat="48.82989" lon="-3.5176">
        <ele>54.400001525879</ele>
        <time>2016-05-29T14:48:35.000Z</time>
      </trkpt>
      <trkpt lat="48.82982" lon="-3.51759">
        <ele>55.599998474121</ele>
        <time>2016-05-29T14:48:38.000Z</time>
      </trkpt>
      <trkpt lat="48.82968" lon="-3.51769">
        <ele>56.599998474121</ele>
        <time>2016-05-29T14:48:44.000Z</time>
      </trkpt>
      <trkpt lat="48.82952" lon="-3.51789">
        <ele>57</ele>
        <time>2016-05-29T14:48:52.000Z</time>
      </trkpt>
      <trkpt lat="48.82936" lon="-3.51797">
        <ele>56</ele>
        <time>2016-05-29T14:48:58.000Z</time>
      </trkpt>
      <trkpt lat="48.82916" lon="-3.5179">
        <ele>56</ele>
        <time>2016-05-29T14:49:05.000Z</time>
      </trkpt>
      <trkpt lat="48.82905" lon="-3.51781">
        <ele>55.599998474121</ele>
        <time>2016-05-29T14:49:09.000Z</time>
      </trkpt>
      <trkpt lat="48.82887" lon="-3.51765">
        <ele>54.599998474121</ele>
        <time>2016-05-29T14:49:16.000Z</time>
      </trkpt>
      <trkpt lat="48.82885" lon="-3.51763">
        <ele>54.400001525879</ele>
        <time>2016-05-29T14:49:17.000Z</time>
      </trkpt>
      <trkpt lat="48.82871" lon="-3.51758">
        <ele>53.400001525879</ele>
        <time>2016-05-29T14:49:22.000Z</time>
      </trkpt>
      <trkpt lat="48.8287" lon="-3.51766">
        <ele>52.599998474121</ele>
        <time>2016-05-29T14:49:24.000Z</time>
      </trkpt>
      <trkpt lat="48.82871" lon="-3.5177">
        <ele>52.200000762939</ele>
        <time>2016-05-29T14:49:25.000Z</time>
      </trkpt>
      <trkpt lat="48.82874" lon="-3.51784">
        <ele>51</ele>
        <time>2016-05-29T14:49:28.000Z</time>
      </trkpt>
      <trkpt lat="48.82877" lon="-3.51799">
        <ele>49.799999237061</ele>
        <time>2016-05-29T14:49:31.000Z</time>
      </trkpt>
      <trkpt lat="48.8288" lon="-3.51813">
        <ele>48.599998474121</ele>
        <time>2016-05-29T14:49:34.000Z</time>
      </trkpt>
      <trkpt lat="48.82883" lon="-3.51827">
        <ele>47.599998474121</ele>
        <time>2016-05-29T14:49:37.000Z</time>
      </trkpt>
      <trkpt lat="48.82885" lon="-3.5184">
        <ele>46.599998474121</ele>
        <time>2016-05-29T14:49:40.000Z</time>
      </trkpt>
      <trkpt lat="48.82887" lon="-3.51855">
        <ele>45.400001525879</ele>
        <time>2016-05-29T14:49:43.000Z</time>
      </trkpt>
      <trkpt lat="48.82892" lon="-3.5187">
        <ele>43.799999237061</ele>
        <time>2016-05-29T14:49:46.000Z</time>
      </trkpt>
      <trkpt lat="48.82894" lon="-3.51885">
        <ele>42.400001525879</ele>
        <time>2016-05-29T14:49:49.000Z</time>
      </trkpt>
      <trkpt lat="48.82896" lon="-3.51901">
        <ele>41</ele>
        <time>2016-05-29T14:49:52.000Z</time>
      </trkpt>
      <trkpt lat="48.82899" lon="-3.51913">
        <ele>39.799999237061</ele>
        <time>2016-05-29T14:49:54.000Z</time>
      </trkpt>
      <trkpt lat="48.82902" lon="-3.51928">
        <ele>38.599998474121</ele>
        <time>2016-05-29T14:49:57.000Z</time>
      </trkpt>
      <trkpt lat="48.82919" lon="-3.51946">
        <ele>38</ele>
        <time>2016-05-29T14:50:03.000Z</time>
      </trkpt>
      <trkpt lat="48.82936" lon="-3.51954">
        <ele>38.400001525879</ele>
        <time>2016-05-29T14:50:09.000Z</time>
      </trkpt>
      <trkpt lat="48.82957" lon="-3.5196">
        <ele>38.599998474121</ele>
        <time>2016-05-29T14:50:16.000Z</time>
      </trkpt>
      <trkpt lat="48.82976" lon="-3.51962">
        <ele>38.599998474121</ele>
        <time>2016-05-29T14:50:22.000Z</time>
      </trkpt>
      <trkpt lat="48.82984" lon="-3.51966">
        <ele>37.200000762939</ele>
        <time>2016-05-29T14:50:25.000Z</time>
      </trkpt>
      <trkpt lat="48.8299" lon="-3.51969">
        <ele>35.799999237061</ele>
        <time>2016-05-29T14:50:27.000Z</time>
      </trkpt>
      <trkpt lat="48.82996" lon="-3.51971">
        <ele>34.400001525879</ele>
        <time>2016-05-29T14:50:29.000Z</time>
      </trkpt>
      <trkpt lat="48.83001" lon="-3.51971">
        <ele>33.200000762939</ele>
        <time>2016-05-29T14:50:31.000Z</time>
      </trkpt>
      <trkpt lat="48.83005" lon="-3.51972">
        <ele>32</ele>
        <time>2016-05-29T14:50:33.000Z</time>
      </trkpt>
      <trkpt lat="48.83008" lon="-3.51974">
        <ele>30.60000038147</ele>
        <time>2016-05-29T14:50:35.000Z</time>
      </trkpt>
      <trkpt lat="48.83009" lon="-3.51977">
        <ele>30.200000762939</ele>
        <time>2016-05-29T14:50:36.000Z</time>
      </trkpt>
      <trkpt lat="48.83007" lon="-3.52001">
        <ele>30.200000762939</ele>
        <time>2016-05-29T14:50:41.000Z</time>
      </trkpt>
      <trkpt lat="48.82999" lon="-3.52026">
        <ele>30.60000038147</ele>
        <time>2016-05-29T14:50:46.000Z</time>
      </trkpt>
      <trkpt lat="48.82993" lon="-3.52054">
        <ele>30</ele>
        <time>2016-05-29T14:50:52.000Z</time>
      </trkpt>
      <trkpt lat="48.8299" lon="-3.52085">
        <ele>29.799999237061</ele>
        <time>2016-05-29T14:50:58.000Z</time>
      </trkpt>
      <trkpt lat="48.8299" lon="-3.52115">
        <ele>29.39999961853</ele>
        <time>2016-05-29T14:51:04.000Z</time>
      </trkpt>
      <trkpt lat="48.82991" lon="-3.52118">
        <ele>29</ele>
        <time>2016-05-29T14:51:05.000Z</time>
      </trkpt>
      <trkpt lat="48.82995" lon="-3.52123">
        <ele>28</ele>
        <time>2016-05-29T14:51:07.000Z</time>
      </trkpt>
      <trkpt lat="48.83001" lon="-3.52132">
        <ele>27.60000038147</ele>
        <time>2016-05-29T14:51:10.000Z</time>
      </trkpt>
      <trkpt lat="48.83002" lon="-3.52161">
        <ele>27.39999961853</ele>
        <time>2016-05-29T14:51:16.000Z</time>
      </trkpt>
      <trkpt lat="48.83004" lon="-3.52186">
        <ele>27.39999961853</ele>
        <time>2016-05-29T14:51:21.000Z</time>
      </trkpt>
      <trkpt lat="48.83002" lon="-3.52201">
        <ele>27</ele>
        <time>2016-05-29T14:51:24.000Z</time>
      </trkpt>
    </trkseg>
  </trk>
</gpx>